M I D A S
Marine Information and Data Acquisition System
Tripno 707 of the Zeeleeuw from 2004-05-04 07:46:19 to 2004-05-04 12:57:40
Back to CruiseResearch ActivitiesStationsMapUnderway DataData graphs

EquipmentUnitsComment
TimeDGPSUTC
LatitudeDGPSDM.mWGS84
LongitudeDGPSDM.mWGS84
TemperatureSBE03/SBE38deg celciusITS90
ConductivitySBE21S/mITS90
SalinitySBE21 Practical Salinity Units
ChlorophylAChelsea fluorimeterg/lCalibrated in Aceton
Missing or incorrect values are displayed as -999
Sea surface data collected by the RV Zeeleeuw from 2004-05-04 07:46:19 to 2004-05-04 12:57:40
                                                                                    Next 1000 lines
Time Latitude Longitude Temperature Conductivity Salinity ChlorophylA
2004-05-04 07:46:26 51°18.018 2°41.971 11.427878 3.782991 33.219871 68.053349
2004-05-04 07:46:32 51°18.02 2°41.932 11.428475 3.783202 33.220507 68.053349
2004-05-04 07:46:36 51°18.022 2°41.906 11.43288 3.784256 33.228675 68.120768
2004-05-04 07:46:41 51°18.024 2°41.874 11.432743 3.784467 33.231449 68.087059
2004-05-04 07:46:46 51°18.026 2°41.841 11.432743 3.784467 33.231449 68.087059
2004-05-04 07:46:51 51°18.028 2°41.809 11.438708 3.785415 33.237873 68.087059
2004-05-04 07:46:56 51°18.03 2°41.777 11.438111 3.786469 33.24604 68.120768
2004-05-04 07:47:00 51°18.031 2°41.751 11.437561 3.787207 33.251828 68.120768
2004-05-04 07:47:06 51°18.033 2°41.712 11.4388 3.787628 33.253811 68.087059
2004-05-04 07:47:12 51°18.035 2°41.673 11.442103 3.788577 33.260946 68.120768
2004-05-04 07:47:17 51°18.037 2°41.64 11.442103 3.788577 33.260946 68.120768
2004-05-04 07:47:20 51°18.039 2°41.621 11.449169 3.789209 33.263562 68.053349
2004-05-04 07:47:26 51°18.041 2°41.582 11.45082 3.790263 33.274581 68.087059
2004-05-04 07:47:32 51°18.043 2°41.543 11.451692 3.790685 33.277989 68.053349
2004-05-04 07:47:36 51°18.045 2°41.517 11.456371 3.791423 33.282348 68.087059
2004-05-04 07:47:42 51°18.047 2°41.478 11.45683 3.791844 33.284328 68.087059
2004-05-04 07:47:47 51°18.049 2°41.445 11.45683 3.791844 33.284328 68.087059
2004-05-04 07:47:52 51°18.052 2°41.413 11.460086 3.792582 33.2894 68.087059
2004-05-04 07:47:56 51°18.053 2°41.387 11.462747 3.793741 33.297879 68.154477
2004-05-04 07:48:01 51°18.055 2°41.354 11.465407 3.794163 33.298431 68.120768
2004-05-04 07:48:06 51°18.058 2°41.322 11.464123 3.781094 33.170714 68.120768
2004-05-04 07:48:12 51°18.06 2°41.283 11.464123 3.781094 33.170714 68.120768
2004-05-04 07:48:16 51°18.061 2°41.257 11.468709 3.796376 33.317925 68.154477
2004-05-04 07:48:20 51°18.063 2°41.231 11.47435 3.797008 33.319822 68.120768
2004-05-04 07:48:26 51°18.065 2°41.192 11.475726 3.797535 33.323544 68.087059
2004-05-04 07:48:32 51°18.067 2°41.153 11.482421 3.796798 33.314905 68.154477
2004-05-04 07:48:36 51°18.069 2°41.127 11.487419 3.797325 33.318628 68.154477
2004-05-04 07:48:41 51°18.071 2°41.095 11.487419 3.797325 33.318628 68.154477
2004-05-04 07:48:46 51°18.073 2°41.062 11.503785 3.796165 33.304442 68.154477
2004-05-04 07:48:52 51°18.076 2°41.024 11.510478 3.79996 33.337951 68.120768
2004-05-04 07:48:57 51°18.078 2°40.992 11.521706 3.803965 33.372805 68.120768
2004-05-04 07:49:02 51°18.081 2°40.959 11.531191 3.805862 33.38777 68.188187
2004-05-04 07:49:06 51°18.082 2°40.934 11.540584 3.803121 33.354561 68.188187
2004-05-04 07:49:12 51°18.085 2°40.895 11.550021 3.810499 33.418064 68.154477
2004-05-04 07:49:17 51°18.087 2°40.863 11.550021 3.810499 33.418064 68.154477
2004-05-04 07:49:22 51°18.089 2°40.83 11.556158 3.814188 33.446947 68.188187
2004-05-04 07:49:26 51°18.091 2°40.805 11.562525 3.813661 33.433212 68.221896
2004-05-04 07:49:32 51°18.094 2°40.766 11.569944 3.816823 33.456221 68.188187
2004-05-04 07:49:36 51°18.097 2°40.74 11.575576 3.820723 33.485712 68.188187
2004-05-04 07:49:41 51°18.099 2°40.707 11.575576 3.820723 33.485712 68.188187
2004-05-04 07:49:47 51°18.103 2°40.669 11.58281 3.82283 33.498417 68.221896
2004-05-04 07:49:52 51°18.105 2°40.637 11.587663 3.820933 33.473453 68.188187
2004-05-04 07:49:57 51°18.108 2°40.605 11.595354 3.825992 33.514959 68.356734
2004-05-04 07:50:02 51°18.111 2°40.572 11.599931 3.828417 33.532172 68.323024
2004-05-04 07:50:06 51°18.113 2°40.547 11.604462 3.827152 33.514816 68.221896
2004-05-04 07:50:10 51°18.115 2°40.521 11.604462 3.827152 33.514816 68.221896
2004-05-04 07:50:16 51°18.119 2°40.482 11.609497 3.832105 33.55814 68.390443
2004-05-04 07:50:21 51°18.122 2°40.45 11.615126 3.828627 33.51919 68.491571
2004-05-04 07:50:26 51°18.124 2°40.418 11.620022 3.833581 33.56107 68.424153
2004-05-04 07:50:32 51°18.128 2°40.379 11.624735 3.835162 33.572193 68.424153
2004-05-04 07:50:37 51°18.13 2°40.347 11.630408 3.836216 33.578174 68.457862
2004-05-04 07:50:42 51°18.133 2°40.315 11.634114 3.83727 33.584154 68.525281
2004-05-04 07:50:46 51°18.136 2°40.289 11.634114 3.83727 33.584154 68.525281
2004-05-04 07:50:52 51°18.139 2°40.25 11.639329 3.838851 33.595272 68.491571
2004-05-04 07:50:56 51°18.141 2°40.225 11.642348 3.839272 33.594366 68.55899
2004-05-04 07:51:01 51°18.144 2°40.193 11.647014 3.840326 33.599626 68.491571
2004-05-04 07:51:06 51°18.147 2°40.161 11.652457 3.835478 33.548063 68.356734
2004-05-04 07:51:12 51°18.151 2°40.122 11.656573 3.841591 33.604073 68.221896
2004-05-04 07:51:16 51°18.154 2°40.097 11.656573 3.841591 33.604073 68.221896
2004-05-04 07:51:22 51°18.157 2°40.059 11.660506 3.84254 33.60902 68.053349
2004-05-04 07:51:26 51°18.16 2°40.033 11.666587 3.843699 33.616737 68.289315
2004-05-04 07:51:32 51°18.164 2°39.996 11.672074 3.840432 33.581312 68.356734
2004-05-04 07:51:37 51°18.166 2°39.964 11.675321 3.842856 33.600638 67.682546
2004-05-04 07:51:42 51°18.17 2°39.932 11.675321 3.842856 33.600638 67.682546
2004-05-04 07:51:47 51°18.173 2°39.9 11.68067 3.846229 33.629206 67.749965
2004-05-04 07:51:52 51°18.176 2°39.868 11.685515 3.847388 33.637636 67.412871
2004-05-04 07:51:56 51°18.179 2°39.842 11.692006 3.848231 33.639401 67.716255
2004-05-04 07:52:02 51°18.183 2°39.804 11.695526 3.846439 33.618363 67.143195
2004-05-04 07:52:07 51°18.186 2°39.772 11.699593 3.847072 33.620226 66.704973
2004-05-04 07:52:12 51°18.189 2°39.74 11.699593 3.847072 33.620226 66.704973
2004-05-04 07:52:17 51°18.192 2°39.708 11.702518 3.850866 33.652885 66.738683
2004-05-04 07:52:22 51°18.195 2°39.676 11.706677 3.850972 33.649612 66.704973
2004-05-04 07:52:27 51°18.198 2°39.644 11.708642 3.849917 33.634333 66.839811
2004-05-04 07:52:32 51°18.201 2°39.612 11.710744 3.853607 33.666672 66.33417
2004-05-04 07:52:37 51°18.204 2°39.581 11.714765 3.854239 33.669247 65.963366
2004-05-04 07:52:42 51°18.207 2°39.549 11.714765 3.854239 33.669247 65.963366
2004-05-04 07:52:46 51°18.209 2°39.524 11.714994 3.854555 33.667309 66.030785
2004-05-04 07:52:52 51°18.212 2°39.486 11.716867 3.852342 33.643613 65.626272
2004-05-04 07:52:57 51°18.215 2°39.455 11.721207 3.856347 33.679019 65.289178
2004-05-04 07:53:02 51°18.218 2°39.423 11.720842 3.857085 33.685485 64.985794
2004-05-04 07:53:07 51°18.221 2°39.391 11.721299 3.856031 33.673075 64.513862
2004-05-04 07:53:12 51°18.224 2°39.36 11.721299 3.856031 33.673075 64.513862
2004-05-04 07:53:16 51°18.226 2°39.334 11.724588 3.853185 33.642514 63.940802
2004-05-04 07:53:21 51°18.229 2°39.303 11.724588 3.853185 33.640367 63.50258
2004-05-04 07:53:26 51°18.232 2°39.271 11.725411 3.858666 33.692273 62.895811
2004-05-04 07:53:32 51°18.235 2°39.233 11.725776 3.855398 33.659758 62.659845
2004-05-04 07:53:36 51°18.238 2°39.208 11.725959 3.856241 33.666532 62.086785
2004-05-04 07:53:41 51°18.24 2°39.177 11.725959 3.856241 33.666532 62.086785
2004-05-04 07:53:47 51°18.244 2°39.139 11.726918 3.85719 33.673614 61.985657
2004-05-04 07:53:52 51°18.247 2°39.107 11.727284 3.855714 33.657824 61.142922
2004-05-04 07:53:57 51°18.25 2°39.076 11.728426 3.855082 33.650955 61.277759
2004-05-04 07:54:01 51°18.252 2°39.05 11.727147 3.854871 33.648189 60.7047
2004-05-04 07:54:06 51°18.255 2°39.019 11.726416 3.854344 33.643061 60.367606
2004-05-04 07:54:12 51°18.258 2°38.981 11.726324 3.855293 33.650859 60.502443
2004-05-04 07:54:16 51°18.261 2°38.956 11.726324 3.855293 33.650859 60.502443
2004-05-04 07:54:21 51°18.263 2°38.924 11.72669 3.854766 33.646448 60.367606
2004-05-04 07:54:26 51°18.266 2°38.893 11.726644 3.861301 33.709316 59.895674
2004-05-04 07:54:32 51°18.269 2°38.855 11.724223 3.86109 33.707264 59.659708
2004-05-04 07:54:37 51°18.272 2°38.824 11.723583 3.861512 33.712801 58.951811
2004-05-04 07:54:42 51°18.275 2°38.792 11.724314 3.861828 33.715161 58.918101
2004-05-04 07:54:47 51°18.277 2°38.76 11.724314 3.861828 33.715161 58.918101
2004-05-04 07:54:52 51°18.28 2°38.729 11.725274 3.861933 33.716187 58.378751
2004-05-04 07:54:57 51°18.283 2°38.697 11.724588 3.862355 33.72029 57.704563
2004-05-04 07:55:01 51°18.285 2°38.672 11.725091 3.86225 33.720698 57.805691
2004-05-04 07:55:06 51°18.288 2°38.64 11.725639 3.862355 33.722442 57.738272
2004-05-04 07:55:12 51°18.291 2°38.603 11.725639 3.863304 33.731674 57.434888
2004-05-04 07:55:17 51°18.294 2°38.571 11.725639 3.863304 33.731674 57.434888
2004-05-04 07:55:22 51°18.297 2°38.54 11.724588 3.862777 33.726545 57.434888
2004-05-04 07:55:27 51°18.3 2°38.508 11.723538 3.86362 33.734034 57.401178
2004-05-04 07:55:32 51°18.302 2°38.477 11.724451 3.863936 33.736394 56.524734
2004-05-04 07:55:36 51°18.305 2°38.452 11.726644 3.864358 33.73978 56.255059
2004-05-04 07:55:41 51°18.307 2°38.42 11.723172 3.864779 33.744601 56.086512
2004-05-04 07:55:46 51°18.309 2°38.388 11.723172 3.864779 33.744601 56.086512
2004-05-04 07:55:52 51°18.312 2°38.35 11.723446 3.864674 33.744293 55.547161
2004-05-04 07:55:57 51°18.314 2°38.319 11.72171 3.865623 33.753526 55.176358
2004-05-04 07:56:02 51°18.317 2°38.287 11.720431 3.865728 33.754552 55.344905
2004-05-04 07:56:07 51°18.319 2°38.255 11.715953 3.866782 33.764094 54.906683
2004-05-04 07:56:12 51°18.321 2°38.223 11.715953 3.866782 33.764094 54.906683
2004-05-04 07:56:17 51°18.324 2°38.192 11.714856 3.867204 33.768198 54.401042
2004-05-04 07:56:22 51°18.326 2°38.16 11.714125 3.86752 33.773431 54.299913
2004-05-04 07:56:26 51°18.328 2°38.135 11.710881 3.868363 33.78164 54.063947
2004-05-04 07:56:31 51°18.33 2°38.103 11.708688 3.86868 33.788311 53.861691
2004-05-04 07:56:36 51°18.333 2°38.071 11.705672 3.869101 33.793135 53.35605
2004-05-04 07:56:42 51°18.335 2°38.033 11.705672 3.869101 33.793135 53.35605
2004-05-04 07:56:47 51°18.337 2°38.001 11.70133 3.869523 33.79796 52.749281
2004-05-04 07:56:52 51°18.339 2°37.968 11.70069 3.869734 33.802169 52.311059
2004-05-04 07:56:57 51°18.342 2°37.937 11.702107 3.869628 33.803301 51.973965
2004-05-04 07:57:02 51°18.344 2°37.905 11.692052 3.869101 33.799607 51.232358
2004-05-04 07:57:06 51°18.347 2°37.88 11.688624 3.869945 33.812135 50.827845
2004-05-04 07:57:12 51°18.349 2°37.842 11.688624 3.869945 33.812135 50.827845
2004-05-04 07:57:16 51°18.351 2°37.817 11.688761 3.869418 33.807722 49.850272
2004-05-04 07:57:21 51°18.354 2°37.785 11.684281 3.869839 33.812548 49.580597
2004-05-04 07:57:26 51°18.356 2°37.753 11.683001 3.869734 33.81296 49.176084
2004-05-04 07:57:32 51°18.358 2°37.715 11.679207 3.869839 33.819025 47.996255
2004-05-04 07:57:37 51°18.361 2°37.683 11.678064 3.869945 33.822932 47.591742
2004-05-04 07:57:42 51°18.363 2°37.651 11.677058 3.869418 33.820677 46.749007
2004-05-04 07:57:47 51°18.366 2°37.619 11.677058 3.869418 33.820677 46.749007
2004-05-04 07:57:52 51°18.368 2°37.587 11.676189 3.869312 33.82109 46.277076
2004-05-04 07:57:57 51°18.371 2°37.554 11.673812 3.868996 33.820889 45.569178
2004-05-04 07:58:02 51°18.373 2°37.523 11.671526 3.869102 33.825518 44.861281
2004-05-04 07:58:07 51°18.375 2°37.49 11.668325 3.869102 33.824798 44.35564
2004-05-04 07:58:12 51°18.378 2°37.458 11.667182 3.869207 33.827266 44.153383
2004-05-04 07:58:17 51°18.38 2°37.427 11.667182 3.869207 33.827266 44.153383
2004-05-04 07:58:21 51°18.383 2°37.401 11.666176 3.869312 33.831896 43.411777
2004-05-04 07:58:26 51°18.385 2°37.369 11.665582 3.869523 33.834671 42.771298
2004-05-04 07:58:32 51°18.388 2°37.331 11.665307 3.869313 33.835499 42.501623
2004-05-04 07:58:37 51°18.39 2°37.298 11.66421 3.870577 33.848551 42.029691
2004-05-04 07:58:42 51°18.393 2°37.266 11.667136 3.869734 33.842493 41.288084
2004-05-04 07:58:47 51°18.395 2°37.234 11.667136 3.869734 33.842493 41.288084
2004-05-04 07:58:52 51°18.398 2°37.201 11.662655 3.870156 33.847325 40.883571
2004-05-04 07:58:57 51°18.4 2°37.169 11.661969 3.869207 33.839517 40.681315
2004-05-04 07:59:02 51°18.403 2°37.136 11.659728 3.870156 33.849488 40.108255
2004-05-04 07:59:06 51°18.405 2°37.111 11.662975 3.87005 33.84846 39.771161
2004-05-04 07:59:12 51°18.408 2°37.072 11.662975 3.87005 33.84846 39.771161
2004-05-04 07:59:17 51°18.41 2°37.039 11.661832 3.870683 33.853184 39.535195
2004-05-04 07:59:22 51°18.413 2°37.007 11.658356 3.870367 33.852986 39.332939
2004-05-04 07:59:26 51°18.414 2°36.981 11.6595 3.870578 33.855763 38.894717
2004-05-04 07:59:30 51°18.417 2°36.955 11.660963 3.870999 33.862039 38.625042
2004-05-04 07:59:37 51°18.42 2°36.91 11.661832 3.870999 33.860596 38.557623
2004-05-04 07:59:41 51°18.422 2°36.884 11.661832 3.870999 33.860596 38.557623
2004-05-04 07:59:46 51°18.425 2°36.852 11.666039 3.87121 33.864817 38.085691
2004-05-04 07:59:52 51°18.428 2°36.813 11.660597 3.87121 33.864817 38.018272
2004-05-04 07:59:57 51°18.431 2°36.781 11.657853 3.87121 33.865538 37.445212
2004-05-04 08:00:02 51°18.433 2°36.748 11.661466 3.872159 33.874068 37.310375
2004-05-04 08:00:06 51°18.436 2°36.722 11.660917 3.872369 33.873959 36.939571
2004-05-04 08:00:12 51°18.439 2°36.684 11.660917 3.872369 33.873959 36.939571
2004-05-04 08:00:17 51°18.442 2°36.651 11.662472 3.872791 33.876627 36.838443
2004-05-04 08:00:22 51°18.445 2°36.619 11.66046 3.873107 33.883321 36.299093
2004-05-04 08:00:27 51°18.447 2°36.586 11.661695 3.873845 33.889795 35.928289
2004-05-04 08:00:32 51°18.45 2°36.553 11.661329 3.874372 33.895657 35.89458
2004-05-04 08:00:37 51°18.453 2°36.521 11.657579 3.875005 33.901826 35.624905
2004-05-04 08:00:42 51°18.456 2°36.488 11.657579 3.875005 33.901826 35.624905
2004-05-04 08:00:47 51°18.459 2°36.456 11.658448 3.875216 33.90316 35.591195
2004-05-04 08:00:52 51°18.462 2°36.423 11.657076 3.875848 33.910051 35.32152
2004-05-04 08:00:56 51°18.464 2°36.397 11.660826 3.876586 33.917249 35.35523
2004-05-04 08:01:01 51°18.467 2°36.365 11.658814 3.877218 33.924864 35.119264
2004-05-04 08:01:07 51°18.471 2°36.326 11.657396 3.877429 33.92692 34.883298
2004-05-04 08:01:12 51°18.473 2°36.293 11.657396 3.877429 33.92692 34.883298
2004-05-04 08:01:17 51°18.476 2°36.261 11.657945 3.878378 33.935452 34.849589
2004-05-04 08:01:22 51°18.476 2°36.228 11.656847 3.878167 33.934118 34.849589
2004-05-04 08:01:27 51°18.477 2°36.196 11.653966 3.878799 33.941012 34.681042
2004-05-04 08:01:32 51°18.477 2°36.163 11.654195 3.879221 33.945849 34.478785
2004-05-04 08:01:37 51°18.476 2°36.13 11.652731 3.878905 33.943487 34.310238
2004-05-04 08:01:42 51°18.476 2°36.098 11.655201 3.879643 33.949962 34.242819
2004-05-04 08:01:45 51°18.475 2°36.078 11.655201 3.879643 33.949962 34.242819
2004-05-04 08:01:51 51°18.474 2°36.039 11.651496 3.880064 33.954076 34.1754
2004-05-04 08:01:57 51°18.472 2°36 11.653737 3.880064 33.956247 33.939435
2004-05-04 08:02:02 51°18.471 2°35.968 11.653097 3.880697 33.963866 33.703469
2004-05-04 08:02:07 51°18.469 2°35.936 11.651359 3.880908 33.965924 33.400084
2004-05-04 08:02:12 51°18.467 2°35.903 11.651359 3.880908 33.965924 33.400084
2004-05-04 08:02:17 51°18.465 2°35.871 11.647014 3.881329 33.970762 33.265247
2004-05-04 08:02:21 51°18.462 2°35.845 11.648249 3.881751 33.976325 32.928153
2004-05-04 08:02:26 51°18.458 2°35.813 11.644224 3.881856 33.97663 32.591059
2004-05-04 08:02:32 51°18.453 2°35.775 11.644224 3.882067 33.977238 32.388802
2004-05-04 08:02:36 51°18.45 2°35.749 11.639329 3.882805 33.987337 32.051708
2004-05-04 08:02:41 51°18.446 2°35.718 11.639329 3.882805 33.987337 32.051708
2004-05-04 08:02:46 51°18.441 2°35.686 11.638872 3.883016 33.990844 31.95058
2004-05-04 08:02:52 51°18.435 2°35.647 11.64308 3.883859 33.999074 31.680905
2004-05-04 08:02:56 51°18.431 2°35.622 11.634892 3.884281 34.006815 31.849452
2004-05-04 08:03:01 51°18.426 2°35.59 11.636493 3.885124 34.015772 31.815742
2004-05-04 08:03:07 51°18.421 2°35.551 11.636584 3.88523 34.018252 31.647195
2004-05-04 08:03:12 51°18.416 2°35.519 11.63416 3.885968 34.027633 31.37752
2004-05-04 08:03:16 51°18.412 2°35.494 11.63416 3.885968 34.027633 31.37752
2004-05-04 08:03:22 51°18.407 2°35.455 11.632604 3.885651 34.026722 31.343811
2004-05-04 08:03:27 51°18.403 2°35.423 11.626519 3.886811 34.038044 31.175264
2004-05-04 08:03:32 51°18.399 2°35.391 11.629539 3.887443 34.043494 30.939298
2004-05-04 08:03:37 51°18.394 2°35.359 11.619793 3.887443 34.04422 30.905589
2004-05-04 08:03:42 51°18.389 2°35.328 11.619793 3.887443 34.04422 30.905589
2004-05-04 08:03:45 51°18.387 2°35.308 11.620525 3.888181 34.054331 31.040426
2004-05-04 08:03:52 51°18.381 2°35.264 11.615858 3.888814 34.061234 30.973007
2004-05-04 08:03:57 51°18.376 2°35.232 11.618832 3.89029 34.077828 31.107845
2004-05-04 08:04:02 51°18.372 2°35.199 11.617231 3.889868 34.076617 31.074136
2004-05-04 08:04:06 51°18.368 2°35.174 11.611556 3.89029 34.084372 30.939298
2004-05-04 08:04:12 51°18.363 2°35.135 11.611556 3.89029 34.084372 30.939298
2004-05-04 08:04:17 51°18.358 2°35.103 11.615126 3.890711 34.089218 31.107845
2004-05-04 08:04:22 51°18.354 2°35.071 11.610916 3.890817 34.092431 31.276392
2004-05-04 08:04:26 51°18.35 2°35.045 11.60579 3.891344 34.099763 30.973007
2004-05-04 08:04:32 51°18.345 2°35.006 11.60762 3.891344 34.099763 31.175264
2004-05-04 08:04:37 51°18.34 2°34.974 11.60254 3.891976 34.109583 31.074136
2004-05-04 08:04:41 51°18.337 2°34.948 11.60254 3.891976 34.109583 31.074136
2004-05-04 08:04:46 51°18.333 2°34.915 11.608261 3.891976 34.109583 30.973007
2004-05-04 08:04:52 51°18.328 2°34.877 11.598741 3.892293 34.11413 31.040426
2004-05-04 08:04:56 51°18.325 2°34.851 11.598924 3.892714 34.120436 30.973007
2004-05-04 08:05:00 51°18.321 2°34.825 11.593889 3.892925 34.12541 31.107845
2004-05-04 08:05:07 51°18.315 2°34.779 11.593752 3.893241 34.12923 31.208973
2004-05-04 08:05:12 51°18.311 2°34.748 11.593385 3.893241 34.130687 31.141554
2004-05-04 08:05:16 51°18.307 2°34.722 11.593385 3.893241 34.130687 31.141554
2004-05-04 08:05:21 51°18.303 2°34.689 11.589494 3.893452 34.135663 30.703332
2004-05-04 08:05:26 51°18.298 2°34.657 11.587343 3.893663 34.139911 30.602204
2004-05-04 08:05:32 51°18.293 2°34.618 11.585603 3.893874 34.144889 30.501076
2004-05-04 08:05:37 51°18.289 2°34.586 11.587114 3.893979 34.146649 30.737042
2004-05-04 08:05:42 51°18.285 2°34.554 11.584733 3.89419 34.150898 30.737042
2004-05-04 08:05:46 51°18.281 2°34.528 11.584733 3.89419 34.150898 30.737042
2004-05-04 08:05:52 51°18.276 2°34.49 11.586656 3.894401 34.154419 30.770751
2004-05-04 08:05:57 51°18.272 2°34.457 11.578323 3.894717 34.16043 30.501076
2004-05-04 08:06:02 51°18.267 2°34.425 11.576766 3.895034 34.164983 30.366238
2004-05-04 08:06:07 51°18.263 2°34.393 11.57434 3.895034 34.164983 30.433657
2004-05-04 08:06:12 51°18.259 2°34.361 11.576904 3.895455 34.169108 30.26511
2004-05-04 08:06:17 51°18.255 2°34.328 11.576904 3.895455 34.169108 30.26511
2004-05-04 08:06:22 51°18.251 2°34.296 11.571317 3.895455 34.169837 30.332529
2004-05-04 08:06:26 51°18.247 2°34.271 11.56944 3.895666 34.17628 29.928016
2004-05-04 08:06:32 51°18.242 2°34.232 11.571821 3.895982 34.181565 29.894306
2004-05-04 08:06:37 51°18.238 2°34.199 11.571684 3.89651 34.187452 29.826888
2004-05-04 08:06:41 51°18.236 2°34.173 11.568799 3.896299 34.18612 29.69205
2004-05-04 08:06:47 51°18.234 2°34.134 11.568799 3.896299 34.18612 29.69205
2004-05-04 08:06:52 51°18.232 2°34.101 11.563532 3.896404 34.188612 29.321247
2004-05-04 08:06:57 51°18.231 2°34.069 11.562158 3.89651 34.192567 29.220118
2004-05-04 08:07:02 51°18.23 2°34.036 11.555746 3.896826 34.195661 29.321247
2004-05-04 08:07:06 51°18.228 2°34.01 11.554876 3.897353 34.200819 29.220118
2004-05-04 08:07:12 51°18.227 2°33.971 11.554876 3.897353 34.200819 29.220118
2004-05-04 08:07:17 51°18.227 2°33.938 11.552265 3.897564 34.204345 28.950443
2004-05-04 08:07:20 51°18.226 2°33.918 11.550204 3.89788 34.211095 29.11899
2004-05-04 08:07:26 51°18.225 2°33.879 11.54631 3.898407 34.21918 29.321247
2004-05-04 08:07:32 51°18.223 2°33.84 11.544111 3.898091 34.21901 29.456084
2004-05-04 08:07:37 51°18.222 2°33.808 11.542233 3.89904 34.229762 29.590922
2004-05-04 08:07:42 51°18.222 2°33.775 11.542233 3.89904 34.229762 29.590922
2004-05-04 08:07:46 51°18.221 2°33.749 11.541088 3.898302 34.225464 29.590922
2004-05-04 08:07:52 51°18.22 2°33.711 11.539347 3.898829 34.233553 29.557212
2004-05-04 08:07:57 51°18.219 2°33.678 11.537652 3.898513 34.232653 29.961725
2004-05-04 08:08:02 51°18.218 2°33.646 11.536827 3.898407 34.234549 29.793178
2004-05-04 08:08:06 51°18.218 2°33.62 11.537652 3.898618 34.238078 29.793178
2004-05-04 08:08:12 51°18.216 2°33.581 11.537652 3.898618 34.238078 29.793178
2004-05-04 08:08:17 51°18.216 2°33.548 11.533757 3.898829 34.241608 29.894306
2004-05-04 08:08:22 51°18.215 2°33.516 11.537193 3.898407 34.239675 30.332529
2004-05-04 08:08:26 51°18.214 2°33.49 11.535773 3.898302 34.239375 30.332529
2004-05-04 08:08:32 51°18.213 2°33.451 11.53252 3.897986 34.23701 30.163982
2004-05-04 08:08:37 51°18.212 2°33.418 11.532658 3.898091 34.239507 30.534785
2004-05-04 08:08:42 51°18.211 2°33.386 11.533207 3.898197 34.241272 30.501076
2004-05-04 08:08:47 51°18.21 2°33.354 11.533207 3.898197 34.241272 30.501076
2004-05-04 08:08:52 51°18.209 2°33.321 11.534078 3.897564 34.235076 30.26511
2004-05-04 08:08:57 51°18.208 2°33.289 11.530916 3.89767 34.236841 30.433657
2004-05-04 08:09:02 51°18.207 2°33.257 11.532887 3.89788 34.239639 30.298819
2004-05-04 08:09:06 51°18.207 2°33.231 11.53646 3.896826 34.23151 30.433657
2004-05-04 08:09:12 51°18.205 2°33.192 11.531695 3.897459 34.236241 30.501076
2004-05-04 08:09:17 51°18.204 2°33.16 11.531695 3.897459 34.236241 30.501076
2004-05-04 08:09:22 51°18.203 2°33.128 11.53417 3.897037 34.232843 30.568494
2004-05-04 08:09:27 51°18.202 2°33.096 11.527159 3.896932 34.232543 30.501076
2004-05-04 08:09:32 51°18.201 2°33.063 11.529496 3.896826 34.23151 30.501076
2004-05-04 08:09:37 51°18.2 2°33.031 11.527526 3.89651 34.228412 31.074136
2004-05-04 08:09:41 51°18.199 2°33.005 11.528305 3.896826 34.230045 31.276392
2004-05-04 08:09:46 51°18.198 2°32.973 11.528305 3.896826 34.230045 31.276392
2004-05-04 08:09:52 51°18.197 2°32.934 11.525509 3.896616 34.230909 31.074136
2004-05-04 08:09:57 51°18.196 2°32.902 11.521477 3.896405 34.231041 31.276392
2004-05-04 08:10:02 51°18.195 2°32.87 11.520606 3.896299 34.229276 31.647195
2004-05-04 08:10:06 51°18.195 2°32.845 11.521477 3.896616 34.234572 31.815742
2004-05-04 08:10:12 51°18.194 2°32.806 11.521477 3.896616 34.234572 31.815742
2004-05-04 08:10:17 51°18.193 2°32.774 11.518452 3.896405 34.232506 31.714614
2004-05-04 08:10:22 51°18.192 2°32.742 11.517902 3.895561 34.225709 31.883161
2004-05-04 08:10:26 51°18.191 2°32.717 11.51474 3.895351 34.22584 31.984289
2004-05-04 08:10:32 51°18.19 2°32.679 11.511257 3.895456 34.226873 31.95058
2004-05-04 08:10:37 51°18.189 2°32.647 11.514098 3.89514 34.22524 31.849452
2004-05-04 08:10:41 51°18.188 2°32.621 11.514098 3.89514 34.22524 31.849452
2004-05-04 08:10:45 51°18.187 2°32.596 11.510707 3.894824 34.224338 31.883161
2004-05-04 08:10:52 51°18.186 2°32.551 11.508094 3.894718 34.223305 31.478648
2004-05-04 08:10:57 51°18.184 2°32.519 11.505665 3.894718 34.226969 31.41123
2004-05-04 08:11:01 51°18.183 2°32.493 11.506444 3.894507 34.225635 31.242683
2004-05-04 08:11:05 51°18.182 2°32.468 11.499935 3.894507 34.225635 30.703332
2004-05-04 08:11:12 51°18.181 2°32.423 11.499935 3.894507 34.225635 30.703332
2004-05-04 08:11:17 51°18.18 2°32.392 11.498651 3.894824 34.2302 30.602204
2004-05-04 08:11:22 51°18.179 2°32.36 11.494113 3.89398 34.224133 30.2314
2004-05-04 08:11:27 51°18.177 2°32.328 11.48884 3.893981 34.227064 30.332529
2004-05-04 08:11:31 51°18.176 2°32.302 11.484851 3.894402 34.231931 29.860597
2004-05-04 08:11:37 51°18.175 2°32.264 11.481917 3.893875 34.229696 29.658341
2004-05-04 08:11:41 51°18.173 2°32.239 11.481917 3.893875 34.229696 29.658341
2004-05-04 08:11:47 51°18.17 2°32.201 11.477881 3.893875 34.231895 29.186409
2004-05-04 08:11:52 51°18.166 2°32.17 11.475497 3.893454 34.231427 29.051571
2004-05-04 08:11:57 51°18.161 2°32.139 11.47169 3.893875 34.239228 29.017862
2004-05-04 08:12:02 51°18.156 2°32.108 11.465315 3.893454 34.238027 29.051571
2004-05-04 08:12:06 51°18.151 2°32.084 11.466783 3.892821 34.236226 29.220118
2004-05-04 08:12:12 51°18.143 2°32.048 11.466783 3.892821 34.236226 29.220118
2004-05-04 08:12:17 51°18.135 2°32.018 11.461508 3.892821 34.240628 29.422375
2004-05-04 08:12:22 51°18.127 2°31.988 11.457105 3.892083 34.236325 29.051571
2004-05-04 08:12:26 51°18.121 2°31.965 11.459353 3.892611 34.244431 29.489794
2004-05-04 08:12:32 51°18.11 2°31.929 11.459582 3.891978 34.243364 29.826888
2004-05-04 08:12:37 51°18.101 2°31.9 11.457564 3.891557 34.241429 30.298819
2004-05-04 08:12:42 51°18.093 2°31.871 11.459765 3.89124 34.240528 30.703332
2004-05-04 08:12:46 51°18.086 2°31.848 11.459765 3.89124 34.240528 30.703332
2004-05-04 08:12:52 51°18.075 2°31.812 11.458848 3.891135 34.241697 31.310101
2004-05-04 08:12:56 51°18.068 2°31.789 11.459765 3.890608 34.236524 32.051708
2004-05-04 08:13:02 51°18.058 2°31.754 11.461279 3.890713 34.237559 32.725896
2004-05-04 08:13:07 51°18.049 2°31.724 11.45738 3.890397 34.233721 33.231537
2004-05-04 08:13:12 51°18.04 2°31.695 11.458068 3.890397 34.234455 33.838306
2004-05-04 08:13:17 51°18.031 2°31.665 11.458068 3.890397 34.234455 33.838306
2004-05-04 08:13:22 51°18.023 2°31.636 11.456187 3.890397 34.234455 34.377657
2004-05-04 08:13:27 51°18.014 2°31.606 11.454995 3.890186 34.231653 34.74846
2004-05-04 08:13:32 51°18.006 2°31.577 11.453802 3.890397 34.23519 35.557486
2004-05-04 08:13:37 51°17.997 2°31.547 11.449444 3.889976 34.233988 35.928289
2004-05-04 08:13:42 51°17.988 2°31.518 11.449444 3.889976 34.233988 35.928289
2004-05-04 08:13:47 51°17.979 2°31.488 11.450453 3.890292 34.235623 36.46764
2004-05-04 08:13:52 51°17.97 2°31.458 11.445086 3.88987 34.232219 36.939571
2004-05-04 08:13:57 51°17.962 2°31.429 11.454811 3.889659 34.231619 36.973281
2004-05-04 08:14:02 51°17.954 2°31.399 11.450132 3.889765 34.233387 37.242956
2004-05-04 08:14:06 51°17.947 2°31.375 11.444351 3.889554 34.234255 37.512631
2004-05-04 08:14:12 51°17.937 2°31.34 11.440727 3.890186 34.241197 37.546341
2004-05-04 08:14:17 51°17.929 2°31.31 11.440727 3.890186 34.241197 37.546341
2004-05-04 08:14:21 51°17.922 2°31.286 11.436047 3.888816 34.229949 37.714888
2004-05-04 08:14:26 51°17.913 2°31.257 11.433523 3.888816 34.229215 37.782306
2004-05-04 08:14:32 51°17.904 2°31.221 11.428521 3.889027 34.231285 37.613759
2004-05-04 08:14:37 51°17.895 2°31.192 11.427282 3.888922 34.232453 37.950853
2004-05-04 08:14:42 51°17.886 2°31.162 11.427282 3.888922 34.232453 37.950853
2004-05-04 08:14:46 51°17.88 2°31.138 11.422096 3.888711 34.23479 38.018272
2004-05-04 08:14:52 51°17.87 2°31.102 11.413054 3.888711 34.237728 38.287947
2004-05-04 08:14:57 51°17.861 2°31.073 11.409657 3.888395 34.237562 38.456494
2004-05-04 08:15:02 51°17.853 2°31.043 11.406214 3.888184 34.239165 38.591332
2004-05-04 08:15:06 51°17.846 2°31.019 11.40222 3.887657 34.236194 38.962136
2004-05-04 08:15:12 51°17.836 2°30.983 11.40222 3.887657 34.236194 38.962136
2004-05-04 08:15:17 51°17.828 2°30.954 11.403597 3.888289 34.24608 38.995845
2004-05-04 08:15:22 51°17.819 2°30.923 11.400751 3.887446 34.242208 39.29923
2004-05-04 08:15:26 51°17.812 2°30.9 11.400567 3.887235 34.245284 39.602614
2004-05-04 08:15:32 51°17.802 2°30.864 11.396757 3.886708 34.243047 39.434067
2004-05-04 08:15:37 51°17.794 2°30.834 11.39065 3.886708 34.245253 39.26552
2004-05-04 08:15:42 51°17.785 2°30.804 11.39065 3.886708 34.245253 39.26552
2004-05-04 08:15:47 51°17.776 2°30.774 11.384588 3.886392 34.245088 39.130683
2004-05-04 08:15:52 51°17.768 2°30.744 11.384956 3.886287 34.246994 38.894717
2004-05-04 08:15:56 51°17.761 2°30.72 11.383991 3.886181 34.246694 38.861007
2004-05-04 08:16:01 51°17.752 2°30.69 11.377286 3.887025 34.258661 38.625042
2004-05-04 08:16:07 51°17.742 2°30.654 11.37476 3.88576 34.249172 38.658751
2004-05-04 08:16:12 51°17.734 2°30.624 11.372831 3.88576 34.253588 38.456494
2004-05-04 08:16:16 51°17.727 2°30.6 11.372831 3.88576 34.253588 38.456494
2004-05-04 08:16:21 51°17.718 2°30.57 11.365115 3.885549 34.25446 38.422785
2004-05-04 08:16:26 51°17.71 2°30.54 11.370443 3.885338 34.253123 38.287947
2004-05-04 08:16:32 51°17.7 2°30.505 11.363966 3.885128 34.255468 38.287947
2004-05-04 08:16:37 51°17.691 2°30.474 11.363966 3.884917 34.25634 38.422785
2004-05-04 08:16:42 51°17.683 2°30.445 11.364104 3.885233 34.263132 38.1194
2004-05-04 08:16:45 51°17.678 2°30.426 11.364104 3.885233 34.263132 38.1194
2004-05-04 08:16:52 51°17.667 2°30.384 11.357857 3.885128 34.262096 37.984563
2004-05-04 08:16:57 51°17.658 2°30.354 11.353079 3.884179 34.254976 38.15311
2004-05-04 08:17:02 51°17.65 2°30.325 11.3517 3.884706 34.263106 38.051982
2004-05-04 08:17:06 51°17.643 2°30.3 11.349954 3.88439 34.261469 38.051982
2004-05-04 08:17:12 51°17.633 2°30.264 11.349954 3.88439 34.261469 38.051982
2004-05-04 08:17:17 51°17.625 2°30.234 11.35046 3.884284 34.261905 37.782306
2004-05-04 08:17:22 51°17.616 2°30.204 11.345865 3.884706 34.268264 37.613759
2004-05-04 08:17:27 51°17.607 2°30.174 11.344349 3.883758 34.263353 37.613759
2004-05-04 08:17:32 51°17.599 2°30.144 11.33764 3.883863 34.267338 37.512631
2004-05-04 08:17:37 51°17.59 2°30.114 11.333917 3.883863 34.268813 37.478922
2004-05-04 08:17:42 51°17.582 2°30.083 11.333917 3.883863 34.268813 37.478922
2004-05-04 08:17:47 51°17.573 2°30.053 11.332814 3.883547 34.267175 37.310375
2004-05-04 08:17:52 51°17.565 2°30.023 11.324312 3.883547 34.270125 37.209247
2004-05-04 08:17:56 51°17.558 2°29.999 11.325966 3.883441 34.271299 37.0407
2004-05-04 08:18:01 51°17.55 2°29.969 11.321967 3.882809 34.268025 37.074409
2004-05-04 08:18:06 51°17.542 2°29.939 11.318934 3.88302 34.275263 36.872153
2004-05-04 08:18:12 51°17.532 2°29.903 11.318934 3.88302 34.275263 36.872153
2004-05-04 08:18:17 51°17.523 2°29.873 11.315716 3.883231 34.281027 36.703606
2004-05-04 08:18:22 51°17.514 2°29.844 11.309372 3.882915 34.27939 36.602477
2004-05-04 08:18:25 51°17.508 2°29.826 11.307579 3.882493 34.278191 36.771024
2004-05-04 08:18:32 51°17.496 2°29.785 11.308498 3.882598 34.282181 36.703606
2004-05-04 08:18:37 51°17.486 2°29.756 11.30059 3.882388 34.282319 36.872153
2004-05-04 08:18:42 51°17.476 2°29.727 11.30059 3.882388 34.282319 36.872153
2004-05-04 08:18:46 51°17.469 2°29.703 11.298061 3.882704 34.288387 36.535059
2004-05-04 08:18:52 51°17.458 2°29.668 11.300958 3.882493 34.289264 36.130546
2004-05-04 08:18:57 51°17.449 2°29.638 11.29613 3.882072 34.289542 36.231674
2004-05-04 08:19:02 51°17.44 2°29.609 11.292129 3.881861 34.29042 36.029418
2004-05-04 08:19:06 51°17.432 2°29.586 11.286886 3.881966 34.293675 36.029418
2004-05-04 08:19:12 51°17.419 2°29.551 11.286886 3.881966 34.293675 36.029418
2004-05-04 08:19:17 51°17.41 2°29.521 11.285737 3.881755 34.293815 35.726033
2004-05-04 08:19:22 51°17.4 2°29.492 11.27962 3.881755 34.293815 35.726033
2004-05-04 08:19:26 51°17.392 2°29.469 11.270466 3.881439 34.295872 35.523777
2004-05-04 08:19:32 51°17.381 2°29.433 11.267798 3.881756 34.301944 35.658614
2004-05-04 08:19:37 51°17.371 2°29.404 11.264624 3.881334 34.301486 35.557486
2004-05-04 08:19:42 51°17.361 2°29.375 11.264624 3.881334 34.301486 35.557486
2004-05-04 08:19:46 51°17.353 2°29.352 11.263197 3.881229 34.303404 35.490067
2004-05-04 08:19:50 51°17.345 2°29.328 11.258551 3.881545 34.310959 35.32152
2004-05-04 08:19:57 51°17.331 2°29.287 11.253167 3.881229 34.31228 35.591195
2004-05-04 08:20:02 51°17.322 2°29.258 11.254962 3.880807 34.311083 35.759742
2004-05-04 08:20:07 51°17.312 2°29.228 11.244884 3.880807 34.314782 35.827161
2004-05-04 08:20:12 51°17.302 2°29.199 11.245252 3.880491 34.314625 35.827161
2004-05-04 08:20:17 51°17.292 2°29.169 11.245252 3.880491 34.314625 35.827161
2004-05-04 08:20:22 51°17.283 2°29.14 11.24921 3.88028 34.316247 35.793452
2004-05-04 08:20:26 51°17.275 2°29.116 11.241801 3.88028 34.318468 35.456358
2004-05-04 08:20:32 51°17.264 2°29.081 11.234207 3.880175 34.32113 35.759742
2004-05-04 08:20:36 51°17.257 2°29.057 11.235219 3.879964 34.322753 35.591195
2004-05-04 08:20:42 51°17.245 2°29.021 11.235219 3.879964 34.322753 35.591195
2004-05-04 08:20:46 51°17.237 2°28.998 11.229834 3.879964 34.324975 35.456358
2004-05-04 08:20:51 51°17.227 2°28.968 11.226704 3.879964 34.326457 35.422648
2004-05-04 08:20:57 51°17.215 2°28.933 11.225231 3.879964 34.32942 34.917007
2004-05-04 08:21:01 51°17.207 2°28.91 11.221548 3.879437 34.328666 35.051845
2004-05-04 08:21:06 51°17.198 2°28.881 11.218418 3.879437 34.329407 35.152973
2004-05-04 08:21:12 51°17.186 2°28.845 11.217267 3.879648 34.336676 34.849589
2004-05-04 08:21:17 51°17.176 2°28.816 11.217267 3.879648 34.336676 34.849589
2004-05-04 08:21:22 51°17.167 2°28.787 11.21584 3.879543 34.33786 34.579913
2004-05-04 08:21:26 51°17.16 2°28.765 11.208565 3.879332 34.338003 34.445076
2004-05-04 08:21:32 51°17.15 2°28.733 11.207874 3.879543 34.343792 34.478785
2004-05-04 08:21:37 51°17.142 2°28.708 11.203039 3.879227 34.341412 33.973144
2004-05-04 08:21:42 51°17.134 2°28.683 11.197652 3.879332 34.344678 33.939435
2004-05-04 08:21:46 51°17.127 2°28.664 11.197652 3.879332 34.344678 33.939435
2004-05-04 08:21:52 51°17.118 2°28.636 11.192954 3.879016 34.34304 33.534922
2004-05-04 08:21:57 51°17.112 2°28.612 11.197145 3.879437 34.351654 33.265247
2004-05-04 08:22:01 51°17.106 2°28.594 11.193415 3.879227 34.352541 33.231537
2004-05-04 08:22:07 51°17.097 2°28.567 11.190006 3.8787 34.351047 33.029281
2004-05-04 08:22:12 51°17.089 2°28.545 11.187657 3.878911 34.357584 32.928153
2004-05-04 08:22:17 51°17.082 2°28.522 11.187657 3.878911 34.357584 32.928153
2004-05-04 08:22:22 51°17.074 2°28.5 11.185354 3.8787 34.356986 32.624768
2004-05-04 08:22:27 51°17.067 2°28.479 11.179597 3.8787 34.357729 32.624768
2004-05-04 08:22:32 51°17.06 2°28.457 11.178445 3.878489 34.357874 32.152836
2004-05-04 08:22:36 51°17.054 2°28.44 11.177478 3.878805 34.363969 31.916871
2004-05-04 08:22:42 51°17.046 2°28.415 11.177478 3.878805 34.363969 31.916871
2004-05-04 08:22:47 51°17.04 2°28.396 11.175128 3.878489 34.364559 31.613486
2004-05-04 08:22:52 51°17.034 2°28.377 11.172963 3.8787 34.368871 31.546067
2004-05-04 08:22:56 51°17.028 2°28.363 11.173239 3.878805 34.372885 31.040426
2004-05-04 08:23:02 51°17.021 2°28.343 11.173654 3.878595 34.372288 30.635913
2004-05-04 08:23:06 51°17.016 2°28.33 11.168402 3.8787 34.374817 30.602204
2004-05-04 08:23:11 51°17.01 2°28.316 11.168402 3.8787 34.374817 30.602204
2004-05-04 08:23:17 51°17.002 2°28.298 11.168863 3.878278 34.373623 30.568494
2004-05-04 08:23:22 51°16.995 2°28.285 11.164946 3.878278 34.375853 30.332529
2004-05-04 08:23:27 51°16.988 2°28.272 11.161445 3.878384 34.376895 30.197691
2004-05-04 08:23:30 51°16.984 2°28.264 11.160431 3.878384 34.378382 29.894306
2004-05-04 08:23:37 51°16.975 2°28.247 11.153795 3.878384 34.37987 30.096563
2004-05-04 08:23:41 51°16.97 2°28.237 11.154348 3.878489 34.382399 29.69205
2004-05-04 08:23:45 51°16.965 2°28.227 11.154348 3.878489 34.382399 29.69205
2004-05-04 08:23:52 51°16.956 2°28.21 11.152413 3.878595 34.38716 29.590922
2004-05-04 08:23:56 51°16.952 2°28.2 11.149187 3.878173 34.386711 29.186409
2004-05-04 08:24:01 51°16.946 2°28.188 11.146191 3.878173 34.3882 28.478512
2004-05-04 08:24:06 51°16.94 2°28.176 11.143564 3.878384 34.392517 28.411093
2004-05-04 08:24:12 51°16.933 2°28.161 11.147712 3.878384 34.394005 28.478512
2004-05-04 08:24:17 51°16.928 2°28.149 11.147712 3.878384 34.394005 28.478512
2004-05-04 08:24:21 51°16.923 2°28.14 11.14361 3.878173 34.394153 28.276255
2004-05-04 08:24:26 51°16.918 2°28.127 11.141075 3.878384 34.398472 28.073999
2004-05-04 08:24:32 51°16.912 2°28.112 11.142688 3.878173 34.399365 27.804324
2004-05-04 08:24:37 51°16.907 2°28.1 11.138863 3.878279 34.400407 27.635777
2004-05-04 08:24:42 51°16.902 2°28.088 11.140199 3.878173 34.400854 27.635777
2004-05-04 08:24:46 51°16.898 2°28.077 11.140199 3.878173 34.400854 27.635777
2004-05-04 08:24:52 51°16.892 2°28.062 11.136927 3.878068 34.401301 27.703195
2004-05-04 08:24:57 51°16.887 2°28.05 11.135682 3.878068 34.40279 27.568358
2004-05-04 08:25:02 51°16.883 2°28.037 11.133516 3.877963 34.402492 27.534648
2004-05-04 08:25:06 51°16.879 2°28.027 11.129505 3.877857 34.402194 27.46723
2004-05-04 08:25:12 51°16.873 2°28.011 11.126739 3.878068 34.405025 27.231264
2004-05-04 08:25:17 51°16.868 2°27.999 11.126739 3.878068 34.405025 27.231264
2004-05-04 08:25:22 51°16.863 2°27.986 11.119547 3.877963 34.406217 27.264973
2004-05-04 08:25:27 51°16.859 2°27.974 11.120699 3.878174 34.409793 27.231264
2004-05-04 08:25:32 51°16.854 2°27.962 11.121068 3.878068 34.410985 27.096426
2004-05-04 08:25:36 51°16.849 2°27.952 11.116688 3.877963 34.412923 26.725623
2004-05-04 08:25:42 51°16.843 2°27.938 11.116688 3.877963 34.412923 26.725623
2004-05-04 08:25:46 51°16.838 2°27.929 11.113184 3.877752 34.414563 26.489657
2004-05-04 08:25:52 51°16.832 2°27.916 11.110509 3.877857 34.419334 26.590785
2004-05-04 08:25:57 51°16.827 2°27.905 11.105621 3.877963 34.421869 26.388529
2004-05-04 08:26:02 51°16.821 2°27.894 11.107604 3.877963 34.422615 26.759332
2004-05-04 08:26:07 51°16.816 2°27.883 11.110325 3.877858 34.423809 26.253691
2004-05-04 08:26:12 51°16.81 2°27.872 11.110325 3.877858 34.423809 26.253691
2004-05-04 08:26:16 51°16.806 2°27.864 11.106405 3.877858 34.426792 25.882888
2004-05-04 08:26:22 51°16.8 2°27.85 11.105529 3.877752 34.427986 26.017725
2004-05-04 08:26:26 51°16.796 2°27.841 11.10373 3.877647 34.430673 25.781759
2004-05-04 08:26:32 51°16.79 2°27.827 11.101009 3.877858 34.432761 25.815469
2004-05-04 08:26:37 51°16.785 2°27.815 11.100041 3.877858 34.432761 25.579503
2004-05-04 08:26:42 51°16.78 2°27.803 11.100041 3.877858 34.432761 25.579503
2004-05-04 08:26:46 51°16.777 2°27.793 11.09695 3.877963 34.434551 25.714341
2004-05-04 08:26:52 51°16.771 2°27.779 11.091877 3.877647 34.432912 25.410956
2004-05-04 08:26:57 51°16.767 2°27.767 11.093214 3.878174 34.439624 25.377247
2004-05-04 08:27:02 51°16.762 2°27.755 11.08874 3.877963 34.439776 25.714341
2004-05-04 08:27:07 51°16.757 2°27.744 11.089386 3.878069 34.442313 25.343537
2004-05-04 08:27:12 51°16.751 2°27.734 11.084588 3.878174 34.44485 25.242409
2004-05-04 08:27:17 51°16.746 2°27.724 11.084588 3.878174 34.44485 25.242409
2004-05-04 08:27:21 51°16.741 2°27.717 11.084081 3.877752 34.443661 25.343537
2004-05-04 08:27:27 51°16.735 2°27.706 11.081774 3.877858 34.446199 25.141281
2004-05-04 08:27:32 51°16.729 2°27.697 11.083158 3.877752 34.448142 25.17499
2004-05-04 08:27:37 51°16.723 2°27.689 11.087126 3.877647 34.447098 25.141281
2004-05-04 08:27:41 51°16.718 2°27.683 11.083158 3.877753 34.451877 24.905315
2004-05-04 08:27:46 51°16.712 2°27.675 11.083158 3.877753 34.451877 24.905315
2004-05-04 08:27:52 51°16.705 2°27.667 11.09077 3.877647 34.452327 24.871606
2004-05-04 08:27:57 51°16.7 2°27.661 11.08445 3.877647 34.453822 25.040153
2004-05-04 08:28:01 51°16.696 2°27.656 11.085326 3.877436 34.450986 25.040153
2004-05-04 08:28:07 51°16.69 2°27.648 11.08731 3.877647 34.453822 24.871606
2004-05-04 08:28:12 51°16.685 2°27.642 11.086895 3.877858 34.452922 24.770477
2004-05-04 08:28:17 51°16.68 2°27.635 11.086895 3.877858 34.452922 24.770477
2004-05-04 08:28:22 51°16.676 2°27.628 11.085373 3.877963 34.453966 25.107571
2004-05-04 08:28:26 51°16.673 2°27.623 11.080713 3.878069 34.455758 24.939024
2004-05-04 08:28:32 51°16.668 2°27.614 11.083204 3.87828 34.457099 25.006443
2004-05-04 08:28:37 51°16.665 2°27.606 11.077161 3.87828 34.456352 24.703059
2004-05-04 08:28:41 51°16.662 2°27.6 11.075177 3.878174 34.45755 25.073862
2004-05-04 08:28:47 51°16.659 2°27.59 11.075177 3.878174 34.45755 25.073862
2004-05-04 08:28:52 51°16.657 2°27.582 11.074531 3.87828 34.458594 24.972734
2004-05-04 08:28:57 51°16.655 2°27.573 11.070747 3.878385 34.461133 24.298546
2004-05-04 08:29:02 51°16.654 2°27.564 11.072778 3.877963 34.457703 24.129999
2004-05-04 08:29:07 51°16.653 2°27.554 11.064287 3.878069 34.460989 24.129999
2004-05-04 08:29:12 51°16.651 2°27.543 11.061565 3.878069 34.463232 24.264836
2004-05-04 08:29:17 51°16.65 2°27.532 11.061565 3.878069 34.463232 24.264836
2004-05-04 08:29:22 51°16.649 2°27.519 11.058104 3.877647 34.461296 23.961452
2004-05-04 08:29:27 51°16.649 2°27.506 11.056211 3.877753 34.464584 23.995161
2004-05-04 08:29:31 51°16.648 2°27.495 11.055796 3.877436 34.464441 23.995161
2004-05-04 08:29:37 51°16.646 2°27.478 11.055796 3.877331 34.464143 24.264836
2004-05-04 08:29:41 51°16.645 2°27.467 11.055796 3.877331 34.464143 24.264836
2004-05-04 08:29:47 51°16.644 2°27.449 11.056073 3.877331 34.468631 24.332255
2004-05-04 08:29:52 51°16.643 2°27.435 11.05455 3.87712 34.468785 24.163708
2004-05-04 08:29:57 51°16.643 2°27.421 11.053488 3.876804 34.467894 24.365965
2004-05-04 08:30:02 51°16.643 2°27.408 11.053396 3.876383 34.465958 24.028871
2004-05-04 08:30:07 51°16.642 2°27.396 11.049796 3.876066 34.464318 24.06258
2004-05-04 08:30:10 51°16.643 2°27.389 11.049796 3.876066 34.464318 24.06258
2004-05-04 08:30:16 51°16.643 2°27.375 11.053396 3.876277 34.467157 24.197418
2004-05-04 08:30:22 51°16.643 2°27.362 11.048227 3.876383 34.468202 23.894033
2004-05-04 08:30:27 51°16.643 2°27.352 11.046842 3.876383 34.469699 23.725486
2004-05-04 08:30:32 51°16.644 2°27.342 11.046796 3.876488 34.470744 23.658067
2004-05-04 08:30:37 51°16.644 2°27.334 11.043565 3.876277 34.467905 23.253554
2004-05-04 08:30:42 51°16.644 2°27.326 11.045365 3.876488 34.471492 23.455811
2004-05-04 08:30:45 51°16.644 2°27.322 11.045365 3.876488 34.471492 23.455811
2004-05-04 08:30:52 51°16.644 2°27.315 11.044857 3.876172 34.469853 23.388392
2004-05-04 08:30:57 51°16.644 2°27.311 11.042549 3.876488 34.474486 22.95017
2004-05-04 08:31:02 51°16.643 2°27.308 11.039087 3.876383 34.474189 22.849042
2004-05-04 08:31:06 51°16.643 2°27.307 11.039318 3.875645 34.468368 22.37711
2004-05-04 08:31:12 51°16.642 2°27.306 11.042226 3.876383 34.476435 22.714204
2004-05-04 08:31:17 51°16.642 2°27.304 11.042226 3.876383 34.476435 22.714204
2004-05-04 08:31:22 51°16.641 2°27.302 11.036917 3.876383 34.477184 22.511947
2004-05-04 08:31:26 51°16.641 2°27.301 11.036779 3.876067 34.476293 22.37711
2004-05-04 08:31:32 51°16.641 2°27.3 11.033178 3.876277 34.479133 22.747913
2004-05-04 08:31:37 51°16.641 2°27.298 11.03207 3.875961 34.476745 22.95017
2004-05-04 08:31:42 51°16.641 2°27.296 11.02713 3.876277 34.48063 22.747913
2004-05-04 08:31:47 51°16.641 2°27.295 11.02713 3.876277 34.48063 22.747913
2004-05-04 08:31:52 51°16.641 2°27.293 11.030592 3.875961 34.478991 21.972597
2004-05-04 08:31:57 51°16.641 2°27.291 11.028746 3.875961 34.481987 21.905178
2004-05-04 08:32:02 51°16.641 2°27.29 11.022558 3.875856 34.482439 22.242272
2004-05-04 08:32:07 51°16.641 2°27.288 11.024821 3.875961 34.484983 22.444529
2004-05-04 08:32:12 51°16.641 2°27.287 11.024821 3.875961 34.484983 22.444529
2004-05-04 08:32:18 51°16.642 2°27.285 11.026668 3.875961 34.486481 22.646785
2004-05-04 08:32:22 51°16.642 2°27.284 11.023759 3.875961 34.48723 22.747913
2004-05-04 08:32:27 51°16.642 2°27.282 11.025744 3.875961 34.488729 22.983879
2004-05-04 08:32:32 51°16.642 2°27.28 11.025052 3.875856 34.489931 22.815332
2004-05-04 08:32:37 51°16.643 2°27.279 11.02182 3.875856 34.489931 22.983879
2004-05-04 08:32:42 51°16.643 2°27.277 11.021912 3.875961 34.491726 23.219845
2004-05-04 08:32:46 51°16.643 2°27.276 11.021912 3.875961 34.491726 23.219845
2004-05-04 08:32:52 51°16.643 2°27.273 11.021035 3.875751 34.488885 23.48952
2004-05-04 08:32:57 51°16.644 2°27.272 11.01988 3.875751 34.490384 23.624358
2004-05-04 08:33:01 51°16.644 2°27.27 11.01988 3.875434 34.487245 23.860324
2004-05-04 08:33:05 51°16.644 2°27.269 11.021912 3.875751 34.491133 23.691777
2004-05-04 08:33:12 51°16.645 2°27.266 11.021912 3.875751 34.491133 23.691777
2004-05-04 08:33:17 51°16.645 2°27.265 11.021127 3.875751 34.491883 23.927742
2004-05-04 08:33:22 51°16.645 2°27.263 11.017848 3.876172 34.496067 24.669349
2004-05-04 08:33:26 51°16.646 2°27.262 11.018818 3.875329 34.488447 24.332255
2004-05-04 08:33:32 51°16.646 2°27.259 11.020388 3.875434 34.490243 24.399674
2004-05-04 08:33:37 51°16.646 2°27.258 11.019834 3.875224 34.4889 24.467093
2004-05-04 08:33:41 51°16.647 2°27.256 11.019834 3.875224 34.4889 24.467093
2004-05-04 08:33:46 51°16.647 2°27.254 11.018449 3.875224 34.4889 24.264836
2004-05-04 08:33:52 51°16.647 2°27.252 11.019465 3.875224 34.48965 24.298546
2004-05-04 08:33:57 51°16.647 2°27.251 11.016648 3.875118 34.489353 24.332255
2004-05-04 08:34:02 51°16.648 2°27.249 11.017802 3.87554 34.493538 24.06258
2004-05-04 08:34:07 51°16.648 2°27.247 11.016786 3.875224 34.48965 23.792905
2004-05-04 08:34:12 51°16.649 2°27.245 11.016786 3.875224 34.48965 23.792905
2004-05-04 08:34:17 51°16.649 2°27.243 11.01771 3.875224 34.48965 23.219845
2004-05-04 08:34:22 51°16.65 2°27.241 11.018403 3.875224 34.490399 23.354683
2004-05-04 08:34:26 51°16.651 2°27.24 11.019188 3.875013 34.489056 22.983879
2004-05-04 08:34:32 51°16.652 2°27.237 11.020388 3.874907 34.48726 22.646785
2004-05-04 08:34:37 51°16.653 2°27.234 11.018864 3.875118 34.491602 22.242272
2004-05-04 08:34:42 51°16.654 2°27.231 11.018587 3.875013 34.490555 22.646785
2004-05-04 08:34:46 51°16.655 2°27.229 11.018587 3.875013 34.490555 22.646785
2004-05-04 08:34:52 51°16.656 2°27.226 11.019742 3.875118 34.490102 22.174853
2004-05-04 08:34:57 51°16.658 2°27.223 11.021774 3.875434 34.493241 22.3434
2004-05-04 08:35:01 51°16.658 2°27.22 11.024775 3.874907 34.486511 23.085007
2004-05-04 08:35:06 51°16.66 2°27.218 11.023898 3.875751 34.49638 23.624358
2004-05-04 08:35:12 51°16.661 2°27.214 11.023621 3.875224 34.491898 23.658067
2004-05-04 08:35:16 51°16.662 2°27.212 11.023621 3.875224 34.491898 23.658067
2004-05-04 08:35:22 51°16.664 2°27.208 11.020342 3.875224 34.490399 23.52323
2004-05-04 08:35:26 51°16.665 2°27.205 11.022697 3.875329 34.490696 23.725486
2004-05-04 08:35:32 51°16.667 2°27.201 11.016602 3.875224 34.487401 23.017589
2004-05-04 08:35:37 51°16.668 2°27.198 11.019141 3.875329 34.487698 22.983879
2004-05-04 08:35:42 51°16.669 2°27.195 11.021774 3.875434 34.490243 23.051298
2004-05-04 08:35:46 51°16.67 2°27.192 11.021774 3.875434 34.490243 23.051298
2004-05-04 08:35:52 51°16.672 2°27.188 11.01868 3.875329 34.489197 23.051298
2004-05-04 08:35:57 51°16.674 2°27.184 11.019141 3.875751 34.494881 23.691777
2004-05-04 08:36:01 51°16.676 2°27.181 11.022281 3.875224 34.491149 23.051298
2004-05-04 08:36:07 51°16.679 2°27.176 11.02085 3.875434 34.493991 23.422101
2004-05-04 08:36:12 51°16.682 2°27.171 11.025237 3.875224 34.491149 23.354683
2004-05-04 08:36:17 51°16.686 2°27.167 11.025237 3.875224 34.491149 23.354683
2004-05-04 08:36:21 51°16.689 2°27.164 11.018449 3.875013 34.489056 23.826614
2004-05-04 08:36:24 51°16.691 2°27.162 11.023205 3.875013 34.489806 23.792905
2004-05-04 08:36:31 51°16.698 2°27.158 11.02085 3.875224 34.491149 23.995161
2004-05-04 08:36:37 51°16.703 2°27.156 11.026529 3.874907 34.486511 23.792905
2004-05-04 08:36:42 51°16.708 2°27.155 11.026529 3.874907 34.486511 23.792905
2004-05-04 08:36:47 51°16.713 2°27.156 11.022743 3.875329 34.489946 23.48952
2004-05-04 08:36:52 51°16.718 2°27.158 11.019834 3.875329 34.489197 23.792905
2004-05-04 08:36:57 51°16.723 2°27.161 11.021312 3.875434 34.490243 23.725486
2004-05-04 08:37:02 51°16.727 2°27.164 11.026529 3.875434 34.488744 23.48952
2004-05-04 08:37:06 51°16.73 2°27.168 11.026945 3.87554 34.49054 23.253554
2004-05-04 08:37:12 51°16.734 2°27.174 11.026945 3.87554 34.49054 23.253554
2004-05-04 08:37:17 51°16.737 2°27.181 11.026668 3.87554 34.48979 23.48952
2004-05-04 08:37:22 51°16.74 2°27.188 11.022189 3.87554 34.48979 23.792905
2004-05-04 08:37:27 51°16.742 2°27.196 11.027222 3.875434 34.487995 23.725486
2004-05-04 08:37:32 51°16.743 2°27.204 11.021035 3.873221 34.463032 23.691777
2004-05-04 08:37:37 51°16.743 2°27.213 11.036363 3.873431 34.465873 23.826614
2004-05-04 08:37:42 51°16.742 2°27.221 11.036363 3.873431 34.465873 23.826614
2004-05-04 08:37:45 51°16.742 2°27.226 11.027638 3.875329 34.484701 24.028871
2004-05-04 08:37:52 51°16.739 2°27.238 11.023482 3.87575 34.488136 23.961452
2004-05-04 08:37:57 51°16.737 2°27.246 11.042688 3.875645 34.484842 24.06258
2004-05-04 08:38:02 51°16.733 2°27.253 11.050673 3.875434 34.479754 24.096289
2004-05-04 08:38:06 51°16.731 2°27.258 11.041811 3.875012 34.470329 24.129999
2004-05-04 08:38:12 51°16.725 2°27.266 11.050904 3.87438 34.464803 24.332255
2004-05-04 08:38:17 51°16.721 2°27.272 11.050904 3.87438 34.464803 24.332255
2004-05-04 08:38:22 51°16.716 2°27.276 11.034609 3.872588 34.446279 24.399674
2004-05-04 08:38:26 51°16.711 2°27.28 11.039826 3.871639 34.433878 24.298546
2004-05-04 08:38:32 51°16.704 2°27.285 11.03821 3.872588 34.442539 24.399674
2004-05-04 08:38:37 51°16.698 2°27.287 11.034655 3.870585 34.421929 24.669349
2004-05-04 08:38:42 51°16.692 2°27.29 11.038025 3.870585 34.418192 24.60193
2004-05-04 08:38:47 51°16.685 2°27.292 11.038025 3.870585 34.418192 24.60193
2004-05-04 08:38:52 51°16.679 2°27.294 11.030962 3.871534 34.430589 24.399674
2004-05-04 08:38:57 51°16.672 2°27.296 11.029161 3.873853 34.455833 24.905315
2004-05-04 08:39:02 51°16.665 2°27.298 11.035902 3.873431 34.453147 24.972734
2004-05-04 08:39:06 51°16.659 2°27.3 11.034286 3.874064 34.457924 25.006443
2004-05-04 08:39:12 51°16.651 2°27.305 11.034701 3.873537 34.453445 25.040153
2004-05-04 08:39:17 51°16.644 2°27.309 11.034701 3.873537 34.453445 25.040153
2004-05-04 08:39:22 51°16.637 2°27.313 11.035486 3.873853 34.46182 25.377247
2004-05-04 08:39:26 51°16.631 2°27.317 11.034332 3.874485 34.468095 25.444665
2004-05-04 08:39:32 51°16.623 2°27.323 11.033316 3.874485 34.466597 25.545794
2004-05-04 08:39:37 51°16.615 2°27.328 11.034655 3.867845 34.401475 25.512084
2004-05-04 08:39:42 51°16.608 2°27.333 11.037748 3.863207 34.354735 25.646922
2004-05-04 08:39:45 51°16.603 2°27.336 11.037748 3.863207 34.354735 25.646922
2004-05-04 08:39:52 51°16.593 2°27.343 11.040657 3.874802 34.468986 25.916597
2004-05-04 08:39:57 51°16.585 2°27.348 11.038856 3.865737 34.380568 25.950306
2004-05-04 08:40:01 51°16.578 2°27.351 11.037564 3.873326 34.455095 25.613212
2004-05-04 08:40:06 51°16.57 2°27.355 11.036871 3.872799 34.449119 25.613212
2004-05-04 08:40:12 51°16.561 2°27.361 11.036871 3.872799 34.449119 25.613212
2004-05-04 08:40:17 51°16.552 2°27.366 11.037471 3.872904 34.449416 26.017725
2004-05-04 08:40:22 51°16.542 2°27.37 11.035809 3.873326 34.451354 25.950306
2004-05-04 08:40:26 51°16.534 2°27.373 11.035579 3.866369 34.381612 25.815469
2004-05-04 08:40:32 51°16.521 2°27.378 11.035394 3.870374 34.421333 26.051435
2004-05-04 08:40:37 51°16.509 2°27.381 11.03701 3.87185 34.436717 25.815469
2004-05-04 08:40:42 51°16.497 2°27.383 11.037425 3.87185 34.436717 25.916597
2004-05-04 08:40:47 51°16.485 2°27.385 11.037425 3.87185 34.436717 25.916597
2004-05-04 08:40:52 51°16.472 2°27.386 11.033224 3.874275 34.461512 26.051435
2004-05-04 08:40:56 51°16.461 2°27.386 11.039641 3.873642 34.455987 26.186272
2004-05-04 08:41:02 51°16.445 2°27.386 11.032485 3.873642 34.456735 25.815469
2004-05-04 08:41:05 51°16.437 2°27.386 11.032532 3.874485 34.4651 25.680631
2004-05-04 08:41:12 51°16.417 2°27.384 11.032532 3.874485 34.4651 25.680631
2004-05-04 08:41:17 51°16.402 2°27.382 11.03364 3.875118 34.471374 25.815469
2004-05-04 08:41:22 51°16.387 2°27.379 11.034701 3.875329 34.473466 25.849178
2004-05-04 08:41:26 51°16.375 2°27.377 11.033132 3.872693 34.446577 25.646922
2004-05-04 08:41:32 51°16.356 2°27.374 11.034563 3.87554 34.476306 25.680631
2004-05-04 08:41:36 51°16.342 2°27.372 11.035579 3.872799 34.450615 25.714341
2004-05-04 08:41:41 51°16.325 2°27.369 11.035579 3.872799 34.450615 25.714341
2004-05-04 08:41:46 51°16.307 2°27.366 11.032762 3.873115 34.453004 25.512084
2004-05-04 08:41:50 51°16.292 2°27.363 11.033917 3.874802 34.470483 25.646922
2004-05-04 08:41:56 51°16.27 2°27.359 11.031331 3.872694 34.449569 25.512084
2004-05-04 08:42:02 51°16.247 2°27.354 11.035994 3.873221 34.454798 25.410956
2004-05-04 08:42:06 51°16.232 2°27.351 11.041026 3.875223 34.474666 25.74805
2004-05-04 08:42:12 51°16.209 2°27.346 11.035579 3.870585 34.429405 25.714341
2004-05-04 08:42:17 51°16.19 2°27.341 11.035579 3.870585 34.429405 25.714341
2004-05-04 08:42:21 51°16.175 2°27.338 11.033778 3.873221 34.455546 25.984016
2004-05-04 08:42:26 51°16.156 2°27.334 11.035209 3.875118 34.474369 25.680631
2004-05-04 08:42:32 51°16.133 2°27.328 11.030962 3.875223 34.473169 25.512084
2004-05-04 08:42:36 51°16.117 2°27.324 11.030038 3.871639 34.436121 25.478375
2004-05-04 08:42:42 51°16.094 2°27.319 11.035486 3.872483 34.445982 25.410956
2004-05-04 08:42:46 51°16.078 2°27.315 11.035486 3.872483 34.445982 25.410956
2004-05-04 08:42:52 51°16.055 2°27.309 11.035302 3.872799 34.449867 25.410956
2004-05-04 08:42:57 51°16.035 2°27.304 11.031978 3.873958 34.462118 25.343537
2004-05-04 08:43:02 51°16.016 2°27.298 11.030131 3.872483 34.448975 25.073862
2004-05-04 08:43:06 51°16.001 2°27.293 11.026945 3.870375 34.426567 24.939024
2004-05-04 08:43:12 51°15.978 2°27.285 11.027638 3.873958 34.460621 24.905315
2004-05-04 08:43:17 51°15.959 2°27.278 11.027638 3.873958 34.460621 24.905315
2004-05-04 08:43:22 51°15.939 2°27.272 11.026022 3.872694 34.449569 24.736768
2004-05-04 08:43:26 51°15.924 2°27.266 11.019511 3.87575 34.480644 24.736768
2004-05-04 08:43:32 51°15.901 2°27.258 11.01988 3.875856 34.483937 24.399674
2004-05-04 08:43:37 51°15.881 2°27.252 11.0142 3.871429 34.442259 24.500802
2004-05-04 08:43:40 51°15.87 2°27.247 11.016001 3.875434 34.482001 24.129999
2004-05-04 08:43:47 51°15.843 2°27.239 11.016001 3.875434 34.482001 24.129999
2004-05-04 08:43:52 51°15.824 2°27.233 11.013831 3.874064 34.469902 23.995161
2004-05-04 08:43:57 51°15.804 2°27.226 11.008889 3.872799 34.460346 23.792905
2004-05-04 08:44:02 51°15.785 2°27.22 11.003439 3.875751 34.492632 23.455811
2004-05-04 08:44:06 51°15.77 2°27.216 11.003624 3.875856 34.495927 22.983879
2004-05-04 08:44:12 51°15.747 2°27.209 11.001268 3.874802 34.486214 22.983879
2004-05-04 08:44:16 51°15.731 2°27.204 11.001268 3.874802 34.486214 22.983879
2004-05-04 08:44:22 51°15.708 2°27.196 11.007088 3.872799 34.468584 22.882751
2004-05-04 08:44:26 51°15.693 2°27.191 10.998866 3.87164 34.460821 22.714204
2004-05-04 08:44:32 51°15.67 2°27.183 10.997065 3.874907 34.495507 22.37711
2004-05-04 08:44:37 51°15.651 2°27.177 10.992492 3.872905 34.478622 22.040016
2004-05-04 08:44:41 51°15.635 2°27.173 10.992492 3.872905 34.478622 22.040016
2004-05-04 08:44:47 51°15.612 2°27.166 10.993277 3.875118 34.5006 21.871469
2004-05-04 08:44:52 51°15.593 2°27.16 10.99032 3.876172 34.510316 21.770341
2004-05-04 08:44:56 51°15.577 2°27.156 10.988242 3.873853 34.488791 21.500665
2004-05-04 08:45:02 51°15.554 2°27.149 10.991429 3.874064 34.493884 21.399537
2004-05-04 08:45:06 51°15.539 2°27.144 10.990921 3.872799 34.485073 21.23099
2004-05-04 08:45:11 51°15.519 2°27.138 10.990921 3.872799 34.485073 21.23099
2004-05-04 08:45:17 51°15.496 2°27.131 10.993831 3.873853 34.49554 21.129862
2004-05-04 08:45:22 51°15.477 2°27.125 10.990967 3.869743 34.457718 20.995024
2004-05-04 08:45:25 51°15.465 2°27.122 10.99069 3.875962 34.518728 20.961315
2004-05-04 08:45:32 51°15.438 2°27.114 10.987964 3.873116 34.491963 20.69164
2004-05-04 08:45:37 51°15.419 2°27.109 10.988935 3.871956 34.479699 20.69164
2004-05-04 08:45:42 51°15.399 2°27.103 10.989766 3.873854 34.498541 20.556802
2004-05-04 08:45:46 51°15.384 2°27.099 10.989766 3.873854 34.498541 20.556802
2004-05-04 08:45:52 51°15.36 2°27.092 10.990182 3.873959 34.500338 20.152289
2004-05-04 08:45:57 51°15.341 2°27.086 10.988519 3.871429 34.477464 20.287127
2004-05-04 08:46:02 51°15.321 2°27.081 10.985239 3.874697 34.508417 19.815195
2004-05-04 08:46:07 51°15.302 2°27.076 10.984222 3.87554 34.518294 19.781486
2004-05-04 08:46:12 51°15.282 2°27.07 10.985285 3.87417 34.503933 19.54552
2004-05-04 08:46:17 51°15.263 2°27.065 10.985285 3.87417 34.503933 19.54552
2004-05-04 08:46:21 51°15.247 2°27.061 10.977153 3.871113 34.474324 19.376973
2004-05-04 08:46:26 51°15.228 2°27.055 10.974842 3.875013 34.51381 19.039879
2004-05-04 08:46:32 51°15.205 2°27.049 10.963613 3.874275 34.508733 18.534238
2004-05-04 08:46:37 51°15.185 2°27.044 10.963058 3.872694 34.493777 18.466819
2004-05-04 08:46:41 51°15.17 2°27.04 10.957651 3.870164 34.47015 18.298272
2004-05-04 08:46:47 51°15.146 2°27.032 10.957651 3.870164 34.47015 18.298272
2004-05-04 08:46:52 51°15.127 2°27.026 10.956865 3.876489 34.538235 18.062306
2004-05-04 08:46:57 51°15.108 2°27.018 10.950255 3.870164 34.47765 17.657794
2004-05-04 08:47:02 51°15.088 2°27.011 10.942673 3.8728 34.510589 17.3207
2004-05-04 08:47:07 51°15.069 2°27.003 10.941425 3.871956 34.505213 17.084734
2004-05-04 08:47:12 51°15.05 2°26.996 10.941425 3.871956 34.505213 17.084734
2004-05-04 08:47:17 51°15.03 2°26.989 10.936247 3.873748 34.526028 16.612802
2004-05-04 08:47:22 51°15.011 2°26.982 10.940501 3.870797 34.500449 16.241999
2004-05-04 08:47:26 51°14.996 2°26.975 10.938836 3.865948 34.45601 15.904905
2004-05-04 08:47:30 51°14.98 2°26.969 10.934305 3.86753 34.476979 15.567811
2004-05-04 08:47:36 51°14.957 2°26.96 10.933519 3.873643 34.541523 15.264426
2004-05-04 08:47:42 51°14.935 2°26.952 10.933519 3.873643 34.541523 15.264426
2004-05-04 08:47:45 51°14.923 2°26.948 10.931716 3.874592 34.553215 15.129589
2004-05-04 08:47:52 51°14.897 2°26.937 10.928941 3.872695 34.534346 14.859913
2004-05-04 08:47:57 51°14.877 2°26.931 10.924965 3.87417 34.549022 14.657657
2004-05-04 08:48:02 51°14.858 2°26.923 10.924687 3.875225 34.56327 14.387982
2004-05-04 08:48:06 51°14.842 2°26.918 10.923392 3.875225 34.564775 14.387982
2004-05-04 08:48:10 51°14.827 2°26.912 10.923392 3.875225 34.564775 14.387982
2004-05-04 08:48:16 51°14.804 2°26.903 10.9233 3.868689 34.501278 14.152016
2004-05-04 08:48:22 51°14.781 2°26.894 10.920016 3.875014 34.56795 14.118306
2004-05-04 08:48:26 51°14.766 2°26.888 10.922236 3.875119 34.572012 13.983469
2004-05-04 08:48:32 51°14.743 2°26.879 10.916409 3.874803 34.569619 14.084597
2004-05-04 08:48:36 51°14.727 2°26.873 10.919508 3.846554 34.289462 14.320563
2004-05-04 08:48:42 51°14.704 2°26.864 10.919508 3.846554 34.289462 14.320563
2004-05-04 08:48:46 51°14.688 2°26.858 10.916131 3.875014 34.575484 14.185725
2004-05-04 08:48:52 51°14.665 2°26.849 10.915715 3.874908 34.573681 14.118306
2004-05-04 08:48:56 51°14.65 2°26.843 10.915623 3.874803 34.574893 14.253144
2004-05-04 08:49:02 51°14.627 2°26.835 10.915715 3.874592 34.573549 14.219435
2004-05-04 08:49:06 51°14.611 2°26.829 10.91701 3.874909 34.577449 14.219435
2004-05-04 08:49:12 51°14.588 2°26.819 10.922097 3.875119 34.581055 14.084597
2004-05-04 08:49:16 51°14.572 2°26.814 10.922097 3.875119 34.581055 14.084597
2004-05-04 08:49:22 51°14.549 2°26.805 10.922884 3.874803 34.577908 14.152016
2004-05-04 08:49:26 51°14.534 2°26.799 10.923901 3.875014 34.58076 14.219435
2004-05-04 08:49:32 51°14.511 2°26.79 10.922005 3.875014 34.58076 14.185725
2004-05-04 08:49:37 51°14.492 2°26.783 10.927277 3.874909 34.577449 14.050888
2004-05-04 08:49:42 51°14.472 2°26.777 10.92797 3.875014 34.577745 14.084597
2004-05-04 08:49:46 51°14.457 2°26.772 10.92797 3.875014 34.577745 14.084597
2004-05-04 08:49:52 51°14.434 2°26.763 10.929358 3.875225 34.579089 14.152016
2004-05-04 08:49:57 51°14.415 2°26.756 10.927924 3.874803 34.57414 14.152016
2004-05-04 08:50:02 51°14.395 2°26.749 10.9313 3.874592 34.571288 14.152016
2004-05-04 08:50:06 51°14.38 2°26.744 10.927184 3.874908 34.571421 14.084597
2004-05-04 08:50:12 51°14.357 2°26.735 10.92797 3.875014 34.571716 14.017178
2004-05-04 08:50:17 51°14.337 2°26.728 10.92797 3.875014 34.571716 14.017178
2004-05-04 08:50:22 51°14.318 2°26.721 10.924271 3.874908 34.569914 14.253144
2004-05-04 08:50:26 51°14.303 2°26.715 10.923947 3.874908 34.569161 14.219435
2004-05-04 08:50:32 51°14.28 2°26.707 10.920895 3.87533 34.573356 14.152016
2004-05-04 08:50:37 51°14.26 2°26.7 10.917334 3.875119 34.572765 14.050888
2004-05-04 08:50:42 51°14.241 2°26.692 10.91664 3.875541 34.576207 13.949759
2004-05-04 08:50:46 51°14.226 2°26.688 10.91664 3.875541 34.576207 13.949759
2004-05-04 08:50:52 51°14.203 2°26.678 10.914929 3.875225 34.574568 13.983469
2004-05-04 08:50:57 51°14.184 2°26.672 10.917796 3.875541 34.579975 13.91605
2004-05-04 08:51:02 51°14.164 2°26.664 10.912986 3.875541 34.579975 13.949759
2004-05-04 08:51:06 51°14.149 2°26.658 10.91183 3.875225 34.579843 13.949759
2004-05-04 08:51:12 51°14.126 2°26.65 10.914559 3.87533 34.583153 13.680084
2004-05-04 08:51:17 51°14.106 2°26.643 10.914559 3.87533 34.583153 13.680084
2004-05-04 08:51:22 51°14.087 2°26.637 10.917981 3.875119 34.581055 13.444118
2004-05-04 08:51:27 51°14.068 2°26.63 10.915345 3.875119 34.581809 13.34299
2004-05-04 08:51:32 51°14.049 2°26.622 10.923624 3.875119 34.582563 13.3767
2004-05-04 08:51:37 51°14.029 2°26.615 10.920803 3.875014 34.584529 13.3767
2004-05-04 08:51:42 51°14.01 2°26.609 10.923392 3.875119 34.58407 13.309281
2004-05-04 08:51:46 51°13.995 2°26.603 10.923392 3.875119 34.58407 13.309281
2004-05-04 08:51:52 51°13.971 2°26.595 10.926676 3.875014 34.582267 13.309281
2004-05-04 08:51:57 51°13.952 2°26.588 10.927924 3.87533 34.583907 13.275571
2004-05-04 08:52:02 51°13.933 2°26.58 10.925982 3.875014 34.579252 13.444118
2004-05-04 08:52:06 51°13.917 2°26.575 10.928941 3.875119 34.578794 13.444118
2004-05-04 08:52:12 51°13.894 2°26.566 10.928941 3.875119 34.578794 13.444118
2004-05-04 08:52:17 51°13.875 2°26.559 10.929866 3.87533 34.577123 13.309281
2004-05-04 08:52:22 51°13.856 2°26.553 10.931716 3.875225 34.575321 13.3767
2004-05-04 08:52:26 51°13.84 2°26.547 10.938697 3.875541 34.576207 13.410409
2004-05-04 08:52:32 51°13.817 2°26.54 10.936987 3.87533 34.574863 13.34299
2004-05-04 08:52:37 51°13.798 2°26.533 10.942304 3.875435 34.574405 13.275571
2004-05-04 08:52:42 51°13.778 2°26.526 10.949284 3.875225 34.572307 13.477828
2004-05-04 08:52:47 51°13.759 2°26.519 10.949284 3.875225 34.572307 13.477828
2004-05-04 08:52:52 51°13.74 2°26.511 10.948683 3.875646 34.572736 13.511537
2004-05-04 08:52:57 51°13.72 2°26.504 10.947897 3.875752 34.570771 13.612665
2004-05-04 08:53:02 51°13.701 2°26.497 10.951272 3.875962 34.571362 13.545247
2004-05-04 08:53:06 51°13.686 2°26.492 10.955524 3.875752 34.567006 13.680084
2004-05-04 08:53:12 51°13.662 2°26.483 10.956957 3.875962 34.566091 13.882341
2004-05-04 08:53:17 51°13.643 2°26.477 10.956957 3.875962 34.566091 13.882341
2004-05-04 08:53:21 51°13.628 2°26.471 10.960239 3.876173 34.565176 13.882341
2004-05-04 08:53:26 51°13.609 2°26.465 10.962273 3.875857 34.561279 14.084597
2004-05-04 08:53:32 51°13.586 2°26.457 10.964999 3.876384 34.563509 14.017178
2004-05-04 08:53:37 51°13.567 2°26.45 10.96999 3.876278 34.559451 13.814922
2004-05-04 08:53:42 51°13.548 2°26.443 10.971515 3.876173 34.556898 14.185725
2004-05-04 08:53:47 51°13.529 2°26.437 10.971515 3.876173 34.556898 14.185725
2004-05-04 08:53:52 51°13.51 2°26.43 10.971885 3.876384 34.555984 14.084597
2004-05-04 08:53:57 51°13.491 2°26.424 10.975767 3.876595 34.556576 14.253144
2004-05-04 08:54:02 51°13.472 2°26.417 10.977569 3.8767 34.553862 14.219435
2004-05-04 08:54:07 51°13.453 2°26.411 10.98413 3.876911 34.554454 14.4554
2004-05-04 08:54:12 51°13.434 2°26.403 10.987502 3.877016 34.553245 14.48911
2004-05-04 08:54:17 51°13.414 2°26.397 10.987502 3.877016 34.553245 14.48911
2004-05-04 08:54:22 51°13.395 2°26.39 10.989905 3.877016 34.550237 14.590238
2004-05-04 08:54:27 51°13.376 2°26.384 10.993785 3.877121 34.548278 14.792494
2004-05-04 08:54:32 51°13.357 2°26.377 10.99494 3.876384 34.537939 14.859913
2004-05-04 08:54:37 51°13.338 2°26.37 10.997665 3.877438 34.546158 14.961042
2004-05-04 08:54:42 51°13.319 2°26.364 11.001915 3.877438 34.542401 15.129589
2004-05-04 08:54:46 51°13.304 2°26.358 11.001915 3.877438 34.542401 15.129589
2004-05-04 08:54:52 51°13.281 2°26.351 11.004779 3.877332 34.539851 15.500392
2004-05-04 08:54:57 51°13.262 2°26.344 11.008474 3.877754 34.541034 15.534101
2004-05-04 08:55:02 51°13.243 2°26.337 11.011984 3.877543 34.535184 15.60152
2004-05-04 08:55:06 51°13.228 2°26.331 11.013323 3.877754 34.535776 15.770067
2004-05-04 08:55:12 51°13.205 2°26.323 11.017571 3.877964 34.534115 15.938614
2004-05-04 08:55:17 51°13.185 2°26.316 11.017571 3.877964 34.534115 15.938614
2004-05-04 08:55:22 51°13.166 2°26.31 11.018726 3.877964 34.531111 16.006033
2004-05-04 08:55:27 51°13.147 2°26.303 11.022605 3.878386 34.532295 16.17458
2004-05-04 08:55:32 51°13.128 2°26.296 11.025052 3.878597 34.532137 16.343127
2004-05-04 08:55:37 51°13.109 2°26.289 11.025929 3.878491 34.528838 16.477965
2004-05-04 08:55:41 51°13.093 2°26.285 11.029069 3.878175 34.523447 16.680221
2004-05-04 08:55:46 51°13.074 2°26.278 11.029069 3.878175 34.523447 16.680221
2004-05-04 08:55:52 51°13.052 2°26.27 11.032532 3.878807 34.525974 16.477965
2004-05-04 08:55:57 51°13.033 2°26.263 11.033917 3.878702 34.523427 16.680221
2004-05-04 08:56:02 51°13.014 2°26.256 11.038071 3.878913 34.522519 16.848768
2004-05-04 08:56:06 51°12.999 2°26.251 11.037425 3.878913 34.521019 17.017315
2004-05-04 08:56:12 51°12.975 2°26.243 11.042457 3.878913 34.518019 17.253281
2004-05-04 08:56:17 51°12.956 2°26.236 11.042457 3.878913 34.518019 17.253281
2004-05-04 08:56:22 51°12.937 2°26.23 11.041303 3.879018 34.516815 17.3207
2004-05-04 08:56:26 51°12.922 2°26.224 11.045042 3.879334 34.517704 17.522956
2004-05-04 08:56:32 51°12.899 2°26.217 11.046057 3.879651 34.519342 17.792631
2004-05-04 08:56:37 51°12.88 2°26.21 11.048273 3.87944 34.515751 17.758922
2004-05-04 08:56:42 51°12.861 2°26.203 11.049011 3.87965 34.514844 18.197144
2004-05-04 08:56:47 51°12.842 2°26.196 11.049011 3.87965 34.514844 18.197144
2004-05-04 08:56:52 51°12.822 2°26.19 11.050719 3.87944 34.512752 18.43311
2004-05-04 08:56:57 51°12.803 2°26.183 11.053535 3.87965 34.511846 18.97246
2004-05-04 08:57:02 51°12.784 2°26.177 11.053212 3.879967 34.511985 19.208426
2004-05-04 08:57:07 51°12.765 2°26.17 11.054319 3.879756 34.509144 19.343264
2004-05-04 08:57:12 51°12.746 2°26.163 11.055519 3.879861 34.508692 19.747777
2004-05-04 08:57:16 51°12.731 2°26.158 11.055519 3.879861 34.508692 19.747777
2004-05-04 08:57:21 51°12.711 2°26.151 11.055611 3.880283 34.510626 19.882614
2004-05-04 08:57:26 51°12.693 2°26.145 11.058242 3.880072 34.508535 19.848905
2004-05-04 08:57:32 51°12.67 2°26.136 11.058657 3.880283 34.508378 20.152289
2004-05-04 08:57:37 51°12.65 2°26.13 11.059673 3.880177 34.506584 20.320836
2004-05-04 08:57:42 51°12.631 2°26.123 11.059673 3.880494 34.50972 20.354546
2004-05-04 08:57:47 51°12.612 2°26.117 11.059673 3.880494 34.50972 20.354546
2004-05-04 08:57:52 51°12.593 2°26.11 11.059165 3.880177 34.505835 20.421965
2004-05-04 08:57:57 51°12.574 2°26.104 11.062488 3.880494 34.507473 20.421965
2004-05-04 08:58:02 51°12.555 2°26.097 11.062534 3.880704 34.508065 20.489383
2004-05-04 08:58:07 51°12.536 2°26.091 11.06198 3.88081 34.509111 20.051161
2004-05-04 08:58:12 51°12.516 2°26.084 11.062165 3.88081 34.508362 20.253418
2004-05-04 08:58:16 51°12.501 2°26.079 11.062165 3.88081 34.508362 20.253418
2004-05-04 08:58:21 51°12.482 2°26.072 11.063226 3.880599 34.504773 20.051161
2004-05-04 08:58:27 51°12.459 2°26.065 11.06318 3.881021 34.505959 20.084871
2004-05-04 08:58:32 51°12.439 2°26.058 11.062995 3.88081 34.504617 20.051161
2004-05-04 08:58:37 51°12.42 2°26.052 11.059534 3.881021 34.507456 20.017452
2004-05-04 08:58:42 51°12.401 2°26.045 11.059534 3.881126 34.508502 20.084871
2004-05-04 08:58:47 51°12.382 2°26.039 11.059534 3.881126 34.508502 20.084871
2004-05-04 08:58:52 51°12.363 2°26.033 11.058704 3.881021 34.507456 20.219708
2004-05-04 08:58:56 51°12.348 2°26.027 11.054181 3.881126 34.508502 20.152289
2004-05-04 08:59:02 51°12.325 2°26.019 11.055381 3.881126 34.507004 20.152289
2004-05-04 08:59:06 51°12.31 2°26.015 11.055935 3.881337 34.511341 19.882614
2004-05-04 08:59:12 51°12.288 2°26.008 11.053812 3.881442 34.513885 20.11858
2004-05-04 08:59:16 51°12.273 2°26.003 11.053812 3.881442 34.513885 20.11858
2004-05-04 08:59:22 51°12.25 2°25.995 11.051688 3.881021 34.511202 20.017452
2004-05-04 08:59:26 51°12.235 2°25.991 11.053719 3.881021 34.510452 19.983742
2004-05-04 08:59:32 51°12.212 2°25.983 11.051688 3.881231 34.513292 20.084871
2004-05-04 08:59:37 51°12.193 2°25.977 11.053119 3.881126 34.513745 19.882614
2004-05-04 08:59:42 51°12.174 2°25.972 11.053119 3.881126 34.513745 19.882614
2004-05-04 08:59:47 51°12.156 2°25.966 11.047442 3.881126 34.513745 19.747777
2004-05-04 08:59:52 51°12.137 2°25.96 11.048781 3.880915 34.513153 19.680358
2004-05-04 08:59:56 51°12.122 2°25.956 11.04735 3.881126 34.515993 19.747777
2004-05-04 09:00:02 51°12.099 2°25.948 11.047304 3.880915 34.514651 19.612939
2004-05-04 09:00:05 51°12.088 2°25.944 11.042734 3.880704 34.51256 19.57923
2004-05-04 09:00:12 51°12.062 2°25.936 11.046427 3.880599 34.513763 19.747777
2004-05-04 09:00:17 51°12.043 2°25.93 11.046427 3.880599 34.513763 19.747777
2004-05-04 09:00:22 51°12.024 2°25.924 11.045042 3.880704 34.514808 19.781486
2004-05-04 09:00:25 51°12.013 2°25.921 11.047119 3.880494 34.512717 19.747777
2004-05-04 09:00:32 51°11.987 2°25.913 11.045503 3.880599 34.515261 19.747777
2004-05-04 09:00:36 51°11.972 2°25.908 11.048365 3.880704 34.517806 19.848905
2004-05-04 09:00:42 51°11.949 2°25.901 11.04735 3.880704 34.517806 19.916324
2004-05-04 09:00:47 51°11.931 2°25.895 11.04735 3.880704 34.517806 19.916324
2004-05-04 09:00:52 51°11.912 2°25.89 11.048596 3.880388 34.514669 20.152289
2004-05-04 09:00:57 51°11.894 2°25.884 11.054319 3.880599 34.51751 20.253418
2004-05-04 09:01:02 51°11.875 2°25.879 11.048642 3.880704 34.517056 20.084871
2004-05-04 09:01:06 51°11.86 2°25.874 11.050904 3.88081 34.518102 19.983742
2004-05-04 09:01:12 51°11.838 2°25.868 11.051181 3.880915 34.519148 20.421965
2004-05-04 09:01:17 51°11.819 2°25.862 11.051181 3.880915 34.519148 20.421965
2004-05-04 09:01:22 51°11.8 2°25.857 11.053627 3.880915 34.516899 20.287127
2004-05-04 09:01:26 51°11.785 2°25.853 11.052704 3.880915 34.515401 20.556802
2004-05-04 09:01:32 51°11.763 2°25.846 11.059534 3.880915 34.516899 20.725349
2004-05-04 09:01:37 51°11.744 2°25.84 11.053996 3.881021 34.517196 20.860187
2004-05-04 09:01:42 51°11.726 2°25.834 11.051088 3.881021 34.516446 21.028734
2004-05-04 09:01:47 51°11.707 2°25.828 11.051088 3.881021 34.516446 21.028734
2004-05-04 09:01:52 51°11.688 2°25.823 11.052704 3.880599 34.511515 21.197281
2004-05-04 09:01:57 51°11.669 2°25.817 11.049658 3.881021 34.513449 21.500665
2004-05-04 09:02:02 51°11.65 2°25.811 11.049935 3.881337 34.516585 21.601794
2004-05-04 09:02:07 51°11.631 2°25.806 11.047488 3.881021 34.514198 21.972597
2004-05-04 09:02:12 51°11.613 2°25.8 11.047488 3.881021 34.514198 21.972597
2004-05-04 09:02:16 51°11.598 2°25.796 11.046565 3.881231 34.517039 21.736631
2004-05-04 09:02:22 51°11.575 2°25.79 11.041441 3.881548 34.519426 21.568084
2004-05-04 09:02:27 51°11.556 2°25.785 11.037702 3.881548 34.521674 21.399537
2004-05-04 09:02:32 51°11.537 2°25.779 11.037194 3.881653 34.523469 21.197281
2004-05-04 09:02:36 51°11.523 2°25.775 11.027499 3.881969 34.527355 20.388255
2004-05-04 09:02:42 51°11.5 2°25.769 11.024221 3.881969 34.529605 19.714067
2004-05-04 09:02:47 51°11.482 2°25.764 11.024221 3.881969 34.529605 19.714067
2004-05-04 09:02:52 51°11.463 2°25.759 11.023574 3.882602 34.537379 18.938751
2004-05-04 09:02:56 51°11.448 2°25.755 11.021681 3.88218 34.537695 18.028597
2004-05-04 09:03:02 51°11.426 2°25.749 11.024221 3.882497 34.540833 17.3207
2004-05-04 09:03:06 51°11.411 2°25.745 11.022974 3.88218 34.544447 16.343127
2004-05-04 09:03:12 51°11.389 2°25.739 11.022974 3.88218 34.544447 16.343127
2004-05-04 09:03:16 51°11.374 2°25.735 11.023713 3.882707 34.553431 15.567811
2004-05-04 09:03:22 51°11.352 2°25.729 11.022605 3.882708 34.555683 15.264426
2004-05-04 09:03:26 51°11.337 2°25.726 11.021958 3.882918 34.558526 14.691366
2004-05-04 09:03:38 51°11.293 2°25.715 11.027591 3.882708 34.557935 14.623947
2004-05-04 09:03:43 51°11.274 2°25.71 11.029254 3.883024 34.561826 14.590238
2004-05-04 09:03:48 51°11.255 2°25.71 11.028238 3.882813 34.559733 14.725076
2004-05-04 09:03:53 51°11.237 2°25.711 11.028238 3.882813 34.559733 14.725076
2004-05-04 09:03:58 51°11.218 2°25.715 11.029161 3.883235 34.564669 14.657657
2004-05-04 09:04:02 51°11.204 2°25.718 11.033778 3.883235 34.561665 14.758785
2004-05-04 09:04:08 51°11.182 2°25.725 11.03821 3.883129 34.559868 14.927332
2004-05-04 09:04:13 51°11.164 2°25.733 11.036363 3.883235 34.560164 14.691366
2004-05-04 09:04:18 51°11.146 2°25.742 11.036502 3.882918 34.556274 14.792494
2004-05-04 09:04:22 51°11.131 2°25.75 11.036502 3.882918 34.556274 14.792494
2004-05-04 09:04:28 51°11.11 2°25.764 11.039087 3.883235 34.559413 15.06217
2004-05-04 09:04:32 51°11.097 2°25.774 11.037794 3.883129 34.556114 14.893623
2004-05-04 09:04:38 51°11.076 2°25.79 11.04061 3.88334 34.555955 14.893623
2004-05-04 09:04:42 51°11.063 2°25.802 11.04038 3.88334 34.555204 14.927332
2004-05-04 09:04:48 51°11.044 2°25.823 11.041903 3.883656 34.556841 14.826204
2004-05-04 09:04:53 51°11.028 2°25.841 11.041903 3.883656 34.556841 14.826204
2004-05-04 09:04:58 51°11.013 2°25.86 11.048919 3.883972 34.558478 14.725076
2004-05-04 09:05:02 51°11.002 2°25.876 11.04795 3.883867 34.556682 14.691366
2004-05-04 09:05:08 51°10.986 2°25.903 11.050811 3.883972 34.556977 14.826204
2004-05-04 09:05:13 51°10.972 2°25.925 11.051458 3.884078 34.556522 14.792494
2004-05-04 09:05:18 51°10.961 2°25.949 11.051458 3.884078 34.556522 14.792494
2004-05-04 09:05:20 51°10.956 2°25.959 11.05838 3.884288 34.556363 15.02846
2004-05-04 09:05:28 51°10.937 2°25.998 11.059165 3.884288 34.553361 14.859913
2004-05-04 09:05:33 51°10.927 2°26.025 11.066779 3.884499 34.553952 14.961042
2004-05-04 09:05:38 51°10.915 2°26.05 11.06521 3.88471 34.555294 15.129589
2004-05-04 09:05:43 51°10.906 2°26.076 11.070747 3.88471 34.552293 15.230717
2004-05-04 09:05:48 51°10.897 2°26.104 11.070471 3.88471 34.549293 15.230717
2004-05-04 09:05:53 51°10.89 2°26.132 11.070471 3.88471 34.549293 15.230717
2004-05-04 09:05:58 51°10.884 2°26.161 11.07084 3.885132 34.550475 15.399264
2004-05-04 09:06:02 51°10.88 2°26.185 11.072916 3.885448 34.549862 15.567811
2004-05-04 09:06:08 51°10.876 2°26.222 11.080206 3.882496 34.518345 15.432973
2004-05-04 09:06:13 51°10.873 2°26.252 11.092061 3.885658 34.546705 15.534101
2004-05-04 09:06:18 51°10.871 2°26.283 11.106174 3.885869 34.548045 15.466683
2004-05-04 09:06:22 51°10.869 2°26.308 11.106174 3.885869 34.548045 15.466683
2004-05-04 09:06:28 51°10.867 2°26.345 11.12116 3.885975 34.548341 15.567811
2004-05-04 09:06:33 51°10.865 2°26.376 11.134345 3.88608 34.547137 15.534101
2004-05-04 09:06:38 51°10.866 2°26.408 11.147758 3.886502 34.546071 15.399264
2004-05-04 09:06:43 51°10.867 2°26.439 11.158772 3.886712 34.538421 15.331845
2004-05-04 09:06:48 51°10.869 2°26.47 11.167757 3.887661 34.53659 15.06217
2004-05-04 09:06:53 51°10.872 2°26.501 11.167757 3.887661 34.53659 15.06217
2004-05-04 09:06:58 51°10.875 2°26.532 11.176648 3.888926 34.537893 14.691366
2004-05-04 09:07:02 51°10.878 2°26.556 11.184249 3.889347 34.532342 14.623947
2004-05-04 09:07:08 51°10.883 2°26.593 11.19277 3.890085 34.527681 14.893623
2004-05-04 09:07:13 51°10.887 2°26.623 11.19825 3.890928 34.524068 14.859913
2004-05-04 09:07:18 51°10.891 2°26.654 11.202257 3.891666 34.523898 14.994751
2004-05-04 09:07:22 51°10.894 2°26.678 11.202257 3.891666 34.523898 14.994751
2004-05-04 09:07:28 51°10.898 2°26.713 11.20746 3.89272 34.524615 14.927332
2004-05-04 09:07:33 51°10.902 2°26.743 11.210453 3.893352 34.522656 15.197007
2004-05-04 09:07:38 51°10.906 2°26.773 11.214781 3.893457 34.51698 15.230717
2004-05-04 09:07:42 51°10.909 2°26.797 11.21897 3.894617 34.520981 15.298136
2004-05-04 09:07:48 51°10.914 2°26.834 11.221963 3.895144 34.521714 15.668939
2004-05-04 09:07:53 51°10.917 2°26.864 11.221963 3.895144 34.521714 15.668939
2004-05-04 09:07:58 51°10.921 2°26.895 11.226152 3.895249 34.517534 15.736358
2004-05-04 09:08:02 51°10.924 2°26.919 11.22629 3.895671 34.518717 15.736358
2004-05-04 09:08:08 51°10.929 2°26.956 11.230202 3.895987 34.517367 15.770067
2004-05-04 09:08:13 51°10.932 2°26.987 11.23568 3.896619 34.519888 16.006033
2004-05-04 09:08:18 51°10.936 2°27.018 11.238901 3.896514 34.515864 16.039742
2004-05-04 09:08:22 51°10.939 2°27.042 11.238901 3.896514 34.515864 16.039742
2004-05-04 09:08:28 51°10.943 2°27.08 11.242951 3.897252 34.520172 16.208289
2004-05-04 09:08:32 51°10.946 2°27.104 11.245114 3.897041 34.515852 16.477965
2004-05-04 09:08:38 51°10.95 2°27.141 11.245897 3.897463 34.516291 16.680221
2004-05-04 09:08:42 51°10.953 2°27.166 11.250314 3.89799 34.51777 16.71393
2004-05-04 09:08:48 51°10.957 2°27.202 11.255468 3.898095 34.515085 16.848768
2004-05-04 09:08:53 51°10.962 2°27.232 11.255468 3.898095 34.515085 16.848768
2004-05-04 09:08:58 51°10.965 2°27.262 11.252477 3.8982 34.513145 16.916187
2004-05-04 09:09:02 51°10.969 2°27.286 11.256618 3.898411 34.512992 16.916187
2004-05-04 09:09:08 51°10.974 2°27.321 11.25763 3.898727 34.51388 17.185862
2004-05-04 09:09:13 51°10.978 2°27.35 11.261679 3.899044 34.513278 17.556665
2004-05-04 09:09:18 51°10.983 2°27.379 11.265912 3.899571 34.516247 17.590375
2004-05-04 09:09:21 51°10.986 2°27.396 11.265912 3.899571 34.516247 17.590375
2004-05-04 09:09:28 51°10.992 2°27.437 11.267752 3.89936 34.51342 17.624084
2004-05-04 09:09:33 51°10.997 2°27.466 11.271708 3.89936 34.511186 17.961178
2004-05-04 09:09:36 51°11 2°27.484 11.273134 3.899465 34.510737 18.062306
2004-05-04 09:09:41 51°11.004 2°27.513 11.274514 3.900098 34.513258 18.062306